<?xml version="1.0" encoding="UTF-8" standalone="no" ?>
<gpx xmlns="http://www.topografix.com/GPX/1/1" xmlns:xsi="http://www.w3.org/2001/XMLSchema-instance" xsi:schemaLocation="http://www.topografix.com/GPX/1/1 http://www.topografix.com/GPX/1/1/gpx.xsd" version="1.1" creator="VisuGPX - https://www.visugpx.com">
  <metadata>
    <name>Tarascon Bary d\\\'en haut Sommet de CrouzilleSenconac </name>
    <desc><![CDATA[Tarascon Bary d\\\'en haut Sommet de Crouzille Senconac 
700m   max 1151m   5h1/2   8,5km]]></desc>
  </metadata>
  <trk>
    <name><![CDATA[2014-12-16 Tarascon Barry haut senconac]]></name>
    <desc><![CDATA[<h1>OruxMaps</h1><br /><hr align="center" width="480" style="height: 2px; width: 517px"/><h2>Nom: 2014-12-16 Tarascon Barry haut senconac</h2><br /><p>Temps de départ: 12/16/2014 09:00</p><p>Temps d'arrivée: 12/16/2014 14:26</p><p>Distance: 8,3km (05:25)</p><p>Temps déplacement: 02:22</p><p>Vitesse moyenne: 1,5km/h</p><p>Vitesse moyenne: 3,5km/h</p><p>Vitess Max.: 8,2km/h</p><p>Altitude minimale: 609m</p><p>Altitude maximale: 1151m</p><p>Vitesse d'élévation: 254,4m/h</p><p>Vitesse de descente: -249,5m/h</p><p>Gain Altitude: 660m</p><p>Perte Altitude: -644m</p><p>Temps d'élévation: 02:35</p><p>Temps de descente: 02:35</p><hr align="center" width="480" style="height: 2px; width: 517px"/>]]></desc>
    <trkseg>
      <trkpt lat="42.79814" lon="1.68965">
        <ele>609.61</ele>
        <time>2014-12-16T08:00:47Z</time>
      </trkpt>
      <trkpt lat="42.79822" lon="1.68971">
        <ele>611.58</ele>
        <time>2014-12-16T08:01:32Z</time>
      </trkpt>
      <trkpt lat="42.79831" lon="1.68975">
        <ele>609.32</ele>
        <time>2014-12-16T08:01:57Z</time>
      </trkpt>
      <trkpt lat="42.7984" lon="1.6898">
        <ele>617.64</ele>
        <time>2014-12-16T08:02:07Z</time>
      </trkpt>
      <trkpt lat="42.79849" lon="1.68981">
        <ele>616.76</ele>
        <time>2014-12-16T08:02:14Z</time>
      </trkpt>
      <trkpt lat="42.79859" lon="1.68985">
        <ele>617.55</ele>
        <time>2014-12-16T08:02:19Z</time>
      </trkpt>
      <trkpt lat="42.79869" lon="1.68989">
        <ele>618.27</ele>
        <time>2014-12-16T08:02:23Z</time>
      </trkpt>
      <trkpt lat="42.79877" lon="1.68994">
        <ele>617.09</ele>
        <time>2014-12-16T08:02:28Z</time>
      </trkpt>
      <trkpt lat="42.79887" lon="1.69">
        <ele>612.01</ele>
        <time>2014-12-16T08:02:34Z</time>
      </trkpt>
      <trkpt lat="42.79895" lon="1.69007">
        <ele>614.22</ele>
        <time>2014-12-16T08:02:44Z</time>
      </trkpt>
      <trkpt lat="42.79898" lon="1.68996">
        <ele>629.8</ele>
        <time>2014-12-16T08:03:07Z</time>
      </trkpt>
      <trkpt lat="42.79889" lon="1.68991">
        <ele>627.62</ele>
        <time>2014-12-16T08:03:24Z</time>
      </trkpt>
      <trkpt lat="42.7988" lon="1.68988">
        <ele>628.31</ele>
        <time>2014-12-16T08:03:31Z</time>
      </trkpt>
      <trkpt lat="42.7987" lon="1.68988">
        <ele>629.32</ele>
        <time>2014-12-16T08:03:47Z</time>
      </trkpt>
      <trkpt lat="42.79862" lon="1.68997">
        <ele>632.44</ele>
        <time>2014-12-16T08:03:55Z</time>
      </trkpt>
      <trkpt lat="42.79853" lon="1.68999">
        <ele>632.5</ele>
        <time>2014-12-16T08:04:17Z</time>
      </trkpt>
      <trkpt lat="42.79845" lon="1.69005">
        <ele>634.97</ele>
        <time>2014-12-16T08:04:26Z</time>
      </trkpt>
      <trkpt lat="42.79838" lon="1.69015">
        <ele>634.33</ele>
        <time>2014-12-16T08:04:36Z</time>
      </trkpt>
      <trkpt lat="42.79837" lon="1.69027">
        <ele>635.29</ele>
        <time>2014-12-16T08:04:47Z</time>
      </trkpt>
      <trkpt lat="42.79832" lon="1.69038">
        <ele>634.85</ele>
        <time>2014-12-16T08:05:15Z</time>
      </trkpt>
      <trkpt lat="42.79828" lon="1.6905">
        <ele>631.53</ele>
        <time>2014-12-16T08:05:25Z</time>
      </trkpt>
      <trkpt lat="42.79829" lon="1.69064">
        <ele>625.92</ele>
        <time>2014-12-16T08:05:40Z</time>
      </trkpt>
      <trkpt lat="42.79825" lon="1.69075">
        <ele>623.22</ele>
        <time>2014-12-16T08:05:53Z</time>
      </trkpt>
      <trkpt lat="42.79821" lon="1.69086">
        <ele>625</ele>
        <time>2014-12-16T08:06:08Z</time>
      </trkpt>
      <trkpt lat="42.79818" lon="1.69098">
        <ele>628.39</ele>
        <time>2014-12-16T08:06:25Z</time>
      </trkpt>
      <trkpt lat="42.79815" lon="1.6911">
        <ele>629.34</ele>
        <time>2014-12-16T08:06:42Z</time>
      </trkpt>
      <trkpt lat="42.7981" lon="1.69121">
        <ele>635.81</ele>
        <time>2014-12-16T08:06:59Z</time>
      </trkpt>
      <trkpt lat="42.79808" lon="1.69133">
        <ele>639.23</ele>
        <time>2014-12-16T08:07:22Z</time>
      </trkpt>
      <trkpt lat="42.79807" lon="1.69145">
        <ele>645.6</ele>
        <time>2014-12-16T08:08:00Z</time>
      </trkpt>
      <trkpt lat="42.79805" lon="1.69158">
        <ele>647.17</ele>
        <time>2014-12-16T08:08:18Z</time>
      </trkpt>
      <trkpt lat="42.79805" lon="1.69171">
        <ele>647.68</ele>
        <time>2014-12-16T08:08:27Z</time>
      </trkpt>
      <trkpt lat="42.79799" lon="1.69181">
        <ele>656.16</ele>
        <time>2014-12-16T08:08:40Z</time>
      </trkpt>
      <trkpt lat="42.79798" lon="1.69194">
        <ele>658.23</ele>
        <time>2014-12-16T08:08:50Z</time>
      </trkpt>
      <trkpt lat="42.79794" lon="1.69205">
        <ele>656.78</ele>
        <time>2014-12-16T08:09:05Z</time>
      </trkpt>
      <trkpt lat="42.79791" lon="1.69217">
        <ele>656.62</ele>
        <time>2014-12-16T08:09:18Z</time>
      </trkpt>
      <trkpt lat="42.79791" lon="1.6923">
        <ele>652.63</ele>
        <time>2014-12-16T08:10:25Z</time>
      </trkpt>
      <trkpt lat="42.79784" lon="1.69239">
        <ele>657.51</ele>
        <time>2014-12-16T08:12:09Z</time>
      </trkpt>
      <trkpt lat="42.79779" lon="1.6925">
        <ele>662.25</ele>
        <time>2014-12-16T08:12:18Z</time>
      </trkpt>
      <trkpt lat="42.79772" lon="1.69258">
        <ele>664.66</ele>
        <time>2014-12-16T08:12:29Z</time>
      </trkpt>
      <trkpt lat="42.7977" lon="1.6927">
        <ele>667.61</ele>
        <time>2014-12-16T08:12:42Z</time>
      </trkpt>
      <trkpt lat="42.79763" lon="1.69279">
        <ele>670.53</ele>
        <time>2014-12-16T08:12:53Z</time>
      </trkpt>
      <trkpt lat="42.79756" lon="1.69287">
        <ele>674.53</ele>
        <time>2014-12-16T08:13:04Z</time>
      </trkpt>
      <trkpt lat="42.79751" lon="1.69299">
        <ele>678</ele>
        <time>2014-12-16T08:13:16Z</time>
      </trkpt>
      <trkpt lat="42.79744" lon="1.69308">
        <ele>680.55</ele>
        <time>2014-12-16T08:13:26Z</time>
      </trkpt>
      <trkpt lat="42.79738" lon="1.69318">
        <ele>682.15</ele>
        <time>2014-12-16T08:13:36Z</time>
      </trkpt>
      <trkpt lat="42.7973" lon="1.69326">
        <ele>681.55</ele>
        <time>2014-12-16T08:13:47Z</time>
      </trkpt>
      <trkpt lat="42.79725" lon="1.69336">
        <ele>680.8</ele>
        <time>2014-12-16T08:14:00Z</time>
      </trkpt>
      <trkpt lat="42.79719" lon="1.69346">
        <ele>682.39</ele>
        <time>2014-12-16T08:14:09Z</time>
      </trkpt>
      <trkpt lat="42.79713" lon="1.69355">
        <ele>683.8</ele>
        <time>2014-12-16T08:14:19Z</time>
      </trkpt>
      <trkpt lat="42.79708" lon="1.69365">
        <ele>686.94</ele>
        <time>2014-12-16T08:14:30Z</time>
      </trkpt>
      <trkpt lat="42.79703" lon="1.69376">
        <ele>688.26</ele>
        <time>2014-12-16T08:14:41Z</time>
      </trkpt>
      <trkpt lat="42.79699" lon="1.69388">
        <ele>689.37</ele>
        <time>2014-12-16T08:14:54Z</time>
      </trkpt>
      <trkpt lat="42.79695" lon="1.694">
        <ele>691.3</ele>
        <time>2014-12-16T08:15:10Z</time>
      </trkpt>
      <trkpt lat="42.79691" lon="1.69411">
        <ele>688.69</ele>
        <time>2014-12-16T08:15:26Z</time>
      </trkpt>
      <trkpt lat="42.79691" lon="1.69424">
        <ele>689.75</ele>
        <time>2014-12-16T08:16:02Z</time>
      </trkpt>
      <trkpt lat="42.79688" lon="1.69436">
        <ele>693.42</ele>
        <time>2014-12-16T08:16:27Z</time>
      </trkpt>
      <trkpt lat="42.79685" lon="1.69448">
        <ele>697.8</ele>
        <time>2014-12-16T08:16:44Z</time>
      </trkpt>
      <trkpt lat="42.7968" lon="1.6946">
        <ele>700.31</ele>
        <time>2014-12-16T08:17:01Z</time>
      </trkpt>
      <trkpt lat="42.79674" lon="1.6947">
        <ele>703.26</ele>
        <time>2014-12-16T08:17:14Z</time>
      </trkpt>
      <trkpt lat="42.79669" lon="1.6948">
        <ele>708.04</ele>
        <time>2014-12-16T08:17:28Z</time>
      </trkpt>
      <trkpt lat="42.79664" lon="1.69491">
        <ele>708.92</ele>
        <time>2014-12-16T08:17:44Z</time>
      </trkpt>
      <trkpt lat="42.79662" lon="1.69503">
        <ele>711.16</ele>
        <time>2014-12-16T08:18:04Z</time>
      </trkpt>
      <trkpt lat="42.79655" lon="1.69512">
        <ele>715.25</ele>
        <time>2014-12-16T08:18:27Z</time>
      </trkpt>
      <trkpt lat="42.79653" lon="1.69524">
        <ele>716.48</ele>
        <time>2014-12-16T08:18:48Z</time>
      </trkpt>
      <trkpt lat="42.79646" lon="1.69532">
        <ele>725.94</ele>
        <time>2014-12-16T08:21:07Z</time>
      </trkpt>
      <trkpt lat="42.79642" lon="1.69543">
        <ele>730.19</ele>
        <time>2014-12-16T08:21:27Z</time>
      </trkpt>
      <trkpt lat="42.79638" lon="1.69554">
        <ele>731.31</ele>
        <time>2014-12-16T08:21:39Z</time>
      </trkpt>
      <trkpt lat="42.79635" lon="1.69566">
        <ele>732.66</ele>
        <time>2014-12-16T08:21:50Z</time>
      </trkpt>
      <trkpt lat="42.79629" lon="1.69577">
        <ele>733.93</ele>
        <time>2014-12-16T08:22:02Z</time>
      </trkpt>
      <trkpt lat="42.79623" lon="1.69586">
        <ele>734.56</ele>
        <time>2014-12-16T08:22:14Z</time>
      </trkpt>
      <trkpt lat="42.79616" lon="1.69595">
        <ele>734.33</ele>
        <time>2014-12-16T08:22:27Z</time>
      </trkpt>
      <trkpt lat="42.79607" lon="1.69598">
        <ele>734.59</ele>
        <time>2014-12-16T08:22:37Z</time>
      </trkpt>
      <trkpt lat="42.79609" lon="1.69611">
        <ele>739.71</ele>
        <time>2014-12-16T08:23:08Z</time>
      </trkpt>
      <trkpt lat="42.79607" lon="1.69623">
        <ele>745.17</ele>
        <time>2014-12-16T08:23:40Z</time>
      </trkpt>
      <trkpt lat="42.79608" lon="1.69636">
        <ele>749.06</ele>
        <time>2014-12-16T08:24:07Z</time>
      </trkpt>
      <trkpt lat="42.79605" lon="1.69648">
        <ele>753.04</ele>
        <time>2014-12-16T08:24:21Z</time>
      </trkpt>
      <trkpt lat="42.79602" lon="1.6966">
        <ele>755.85</ele>
        <time>2014-12-16T08:24:46Z</time>
      </trkpt>
      <trkpt lat="42.79595" lon="1.69669">
        <ele>760.19</ele>
        <time>2014-12-16T08:26:29Z</time>
      </trkpt>
      <trkpt lat="42.79586" lon="1.69667">
        <ele>763.15</ele>
        <time>2014-12-16T08:26:38Z</time>
      </trkpt>
      <trkpt lat="42.79576" lon="1.69666">
        <ele>766.55</ele>
        <time>2014-12-16T08:27:01Z</time>
      </trkpt>
      <trkpt lat="42.79568" lon="1.69671">
        <ele>767.09</ele>
        <time>2014-12-16T08:27:14Z</time>
      </trkpt>
      <trkpt lat="42.7956" lon="1.69678">
        <ele>768.12</ele>
        <time>2014-12-16T08:27:29Z</time>
      </trkpt>
      <trkpt lat="42.79556" lon="1.69688">
        <ele>765.77</ele>
        <time>2014-12-16T08:27:48Z</time>
      </trkpt>
      <trkpt lat="42.79549" lon="1.69697">
        <ele>770.15</ele>
        <time>2014-12-16T08:28:11Z</time>
      </trkpt>
      <trkpt lat="42.79543" lon="1.69707">
        <ele>777.07</ele>
        <time>2014-12-16T08:28:30Z</time>
      </trkpt>
      <trkpt lat="42.79534" lon="1.69711">
        <ele>781.29</ele>
        <time>2014-12-16T08:28:56Z</time>
      </trkpt>
      <trkpt lat="42.79524" lon="1.69709">
        <ele>783.75</ele>
        <time>2014-12-16T08:29:06Z</time>
      </trkpt>
      <trkpt lat="42.79515" lon="1.69709">
        <ele>784.4</ele>
        <time>2014-12-16T08:29:13Z</time>
      </trkpt>
      <trkpt lat="42.79507" lon="1.69717">
        <ele>784.63</ele>
        <time>2014-12-16T08:29:22Z</time>
      </trkpt>
      <trkpt lat="42.79499" lon="1.69724">
        <ele>785.33</ele>
        <time>2014-12-16T08:29:33Z</time>
      </trkpt>
      <trkpt lat="42.79493" lon="1.69733">
        <ele>783.01</ele>
        <time>2014-12-16T08:29:42Z</time>
      </trkpt>
      <trkpt lat="42.79492" lon="1.69745">
        <ele>780.08</ele>
        <time>2014-12-16T08:29:50Z</time>
      </trkpt>
      <trkpt lat="42.79485" lon="1.69754">
        <ele>777.13</ele>
        <time>2014-12-16T08:30:02Z</time>
      </trkpt>
      <trkpt lat="42.79476" lon="1.69758">
        <ele>777.12</ele>
        <time>2014-12-16T08:30:15Z</time>
      </trkpt>
      <trkpt lat="42.79468" lon="1.69764">
        <ele>780.99</ele>
        <time>2014-12-16T08:30:24Z</time>
      </trkpt>
      <trkpt lat="42.79462" lon="1.69774">
        <ele>782.91</ele>
        <time>2014-12-16T08:30:34Z</time>
      </trkpt>
      <trkpt lat="42.79455" lon="1.69784">
        <ele>785.76</ele>
        <time>2014-12-16T08:30:45Z</time>
      </trkpt>
      <trkpt lat="42.79446" lon="1.69783">
        <ele>789.07</ele>
        <time>2014-12-16T08:31:08Z</time>
      </trkpt>
      <trkpt lat="42.79437" lon="1.69787">
        <ele>787.85</ele>
        <time>2014-12-16T08:31:20Z</time>
      </trkpt>
      <trkpt lat="42.79429" lon="1.69795">
        <ele>786.84</ele>
        <time>2014-12-16T08:31:28Z</time>
      </trkpt>
      <trkpt lat="42.79421" lon="1.69801">
        <ele>784.44</ele>
        <time>2014-12-16T08:31:39Z</time>
      </trkpt>
      <trkpt lat="42.79412" lon="1.69804">
        <ele>782.47</ele>
        <time>2014-12-16T08:31:49Z</time>
      </trkpt>
      <trkpt lat="42.79403" lon="1.69807">
        <ele>785.4</ele>
        <time>2014-12-16T08:31:58Z</time>
      </trkpt>
      <trkpt lat="42.79396" lon="1.69816">
        <ele>784.71</ele>
        <time>2014-12-16T08:32:08Z</time>
      </trkpt>
      <trkpt lat="42.79392" lon="1.69827">
        <ele>784.8</ele>
        <time>2014-12-16T08:32:55Z</time>
      </trkpt>
      <trkpt lat="42.79392" lon="1.6984">
        <ele>786.99</ele>
        <time>2014-12-16T08:33:22Z</time>
      </trkpt>
      <trkpt lat="42.79387" lon="1.6985">
        <ele>791.58</ele>
        <time>2014-12-16T08:33:47Z</time>
      </trkpt>
      <trkpt lat="42.79387" lon="1.69863">
        <ele>792.65</ele>
        <time>2014-12-16T08:34:06Z</time>
      </trkpt>
      <trkpt lat="42.79384" lon="1.69875">
        <ele>790.73</ele>
        <time>2014-12-16T08:34:36Z</time>
      </trkpt>
      <trkpt lat="42.79382" lon="1.69887">
        <ele>799.18</ele>
        <time>2014-12-16T08:35:47Z</time>
      </trkpt>
      <trkpt lat="42.79387" lon="1.69897">
        <ele>798.13</ele>
        <time>2014-12-16T08:36:21Z</time>
      </trkpt>
      <trkpt lat="42.79395" lon="1.69894">
        <ele>804.33</ele>
        <time>2014-12-16T08:37:02Z</time>
      </trkpt>
      <trkpt lat="42.79404" lon="1.69895">
        <ele>805.38</ele>
        <time>2014-12-16T08:37:27Z</time>
      </trkpt>
      <trkpt lat="42.79412" lon="1.69901">
        <ele>809.31</ele>
        <time>2014-12-16T08:38:18Z</time>
      </trkpt>
      <trkpt lat="42.79417" lon="1.69912">
        <ele>812.25</ele>
        <time>2014-12-16T08:40:49Z</time>
      </trkpt>
      <trkpt lat="42.79417" lon="1.69925">
        <ele>820.78</ele>
        <time>2014-12-16T08:41:26Z</time>
      </trkpt>
      <trkpt lat="42.79423" lon="1.69935">
        <ele>821.84</ele>
        <time>2014-12-16T08:41:52Z</time>
      </trkpt>
      <trkpt lat="42.79426" lon="1.69947">
        <ele>828.28</ele>
        <time>2014-12-16T08:42:18Z</time>
      </trkpt>
      <trkpt lat="42.79426" lon="1.69959">
        <ele>831.35</ele>
        <time>2014-12-16T08:42:55Z</time>
      </trkpt>
      <trkpt lat="42.79431" lon="1.69969">
        <ele>831.33</ele>
        <time>2014-12-16T08:44:17Z</time>
      </trkpt>
      <trkpt lat="42.7944" lon="1.69964">
        <ele>827.54</ele>
        <time>2014-12-16T08:49:35Z</time>
      </trkpt>
      <trkpt lat="42.79449" lon="1.69962">
        <ele>831.24</ele>
        <time>2014-12-16T08:49:46Z</time>
      </trkpt>
      <trkpt lat="42.79458" lon="1.69959">
        <ele>833.06</ele>
        <time>2014-12-16T08:50:00Z</time>
      </trkpt>
      <trkpt lat="42.79467" lon="1.69956">
        <ele>839.99</ele>
        <time>2014-12-16T08:50:23Z</time>
      </trkpt>
      <trkpt lat="42.79477" lon="1.69955">
        <ele>841.82</ele>
        <time>2014-12-16T08:50:41Z</time>
      </trkpt>
      <trkpt lat="42.79486" lon="1.69955">
        <ele>847.42</ele>
        <time>2014-12-16T08:50:54Z</time>
      </trkpt>
      <trkpt lat="42.79495" lon="1.69952">
        <ele>847.69</ele>
        <time>2014-12-16T08:51:06Z</time>
      </trkpt>
      <trkpt lat="42.79505" lon="1.69955">
        <ele>848.69</ele>
        <time>2014-12-16T08:51:24Z</time>
      </trkpt>
      <trkpt lat="42.79514" lon="1.69957">
        <ele>845.94</ele>
        <time>2014-12-16T08:51:39Z</time>
      </trkpt>
      <trkpt lat="42.79524" lon="1.69956">
        <ele>848.27</ele>
        <time>2014-12-16T08:51:54Z</time>
      </trkpt>
      <trkpt lat="42.79531" lon="1.69963">
        <ele>849.47</ele>
        <time>2014-12-16T08:52:12Z</time>
      </trkpt>
      <trkpt lat="42.7954" lon="1.69968">
        <ele>848.78</ele>
        <time>2014-12-16T08:52:37Z</time>
      </trkpt>
      <trkpt lat="42.79549" lon="1.69968">
        <ele>850.25</ele>
        <time>2014-12-16T08:52:49Z</time>
      </trkpt>
      <trkpt lat="42.79558" lon="1.6997">
        <ele>849.3</ele>
        <time>2014-12-16T08:53:01Z</time>
      </trkpt>
      <trkpt lat="42.79568" lon="1.69968">
        <ele>853.96</ele>
        <time>2014-12-16T08:53:14Z</time>
      </trkpt>
      <trkpt lat="42.79577" lon="1.69966">
        <ele>861.32</ele>
        <time>2014-12-16T08:53:59Z</time>
      </trkpt>
      <trkpt lat="42.79587" lon="1.69965">
        <ele>860.64</ele>
        <time>2014-12-16T08:54:09Z</time>
      </trkpt>
      <trkpt lat="42.79597" lon="1.69966">
        <ele>860.28</ele>
        <time>2014-12-16T08:54:37Z</time>
      </trkpt>
      <trkpt lat="42.79606" lon="1.69966">
        <ele>864.63</ele>
        <time>2014-12-16T08:54:42Z</time>
      </trkpt>
      <trkpt lat="42.79616" lon="1.69969">
        <ele>868.23</ele>
        <time>2014-12-16T08:54:50Z</time>
      </trkpt>
      <trkpt lat="42.79624" lon="1.69976">
        <ele>866.35</ele>
        <time>2014-12-16T08:55:10Z</time>
      </trkpt>
      <trkpt lat="42.79632" lon="1.69981">
        <ele>863.21</ele>
        <time>2014-12-16T08:55:19Z</time>
      </trkpt>
      <trkpt lat="42.79642" lon="1.69982">
        <ele>860.94</ele>
        <time>2014-12-16T08:55:30Z</time>
      </trkpt>
      <trkpt lat="42.7965" lon="1.69989">
        <ele>867.78</ele>
        <time>2014-12-16T08:55:49Z</time>
      </trkpt>
      <trkpt lat="42.79657" lon="1.69998">
        <ele>872.61</ele>
        <time>2014-12-16T08:56:14Z</time>
      </trkpt>
      <trkpt lat="42.79666" lon="1.69999">
        <ele>872.29</ele>
        <time>2014-12-16T08:56:27Z</time>
      </trkpt>
      <trkpt lat="42.79675" lon="1.69998">
        <ele>873.69</ele>
        <time>2014-12-16T08:57:06Z</time>
      </trkpt>
      <trkpt lat="42.79684" lon="1.69993">
        <ele>879.83</ele>
        <time>2014-12-16T08:57:18Z</time>
      </trkpt>
      <trkpt lat="42.79692" lon="1.69987">
        <ele>882.35</ele>
        <time>2014-12-16T08:57:30Z</time>
      </trkpt>
      <trkpt lat="42.797" lon="1.69981">
        <ele>880.34</ele>
        <time>2014-12-16T08:57:42Z</time>
      </trkpt>
      <trkpt lat="42.79709" lon="1.69978">
        <ele>886.63</ele>
        <time>2014-12-16T08:58:09Z</time>
      </trkpt>
      <trkpt lat="42.79718" lon="1.69976">
        <ele>885.82</ele>
        <time>2014-12-16T08:58:33Z</time>
      </trkpt>
      <trkpt lat="42.79727" lon="1.69975">
        <ele>885.47</ele>
        <time>2014-12-16T08:58:49Z</time>
      </trkpt>
      <trkpt lat="42.79736" lon="1.69982">
        <ele>897.12</ele>
        <time>2014-12-16T08:59:48Z</time>
      </trkpt>
      <trkpt lat="42.79745" lon="1.69984">
        <ele>895.12</ele>
        <time>2014-12-16T09:00:01Z</time>
      </trkpt>
      <trkpt lat="42.79754" lon="1.69985">
        <ele>896.82</ele>
        <time>2014-12-16T09:00:18Z</time>
      </trkpt>
      <trkpt lat="42.79763" lon="1.69981">
        <ele>903.81</ele>
        <time>2014-12-16T09:01:03Z</time>
      </trkpt>
      <trkpt lat="42.79771" lon="1.69975">
        <ele>903.76</ele>
        <time>2014-12-16T09:01:19Z</time>
      </trkpt>
      <trkpt lat="42.7978" lon="1.69973">
        <ele>905.24</ele>
        <time>2014-12-16T09:01:44Z</time>
      </trkpt>
      <trkpt lat="42.79789" lon="1.69969">
        <ele>910.07</ele>
        <time>2014-12-16T09:02:14Z</time>
      </trkpt>
      <trkpt lat="42.79796" lon="1.69962">
        <ele>914.25</ele>
        <time>2014-12-16T09:02:43Z</time>
      </trkpt>
      <trkpt lat="42.79806" lon="1.6996">
        <ele>927.91</ele>
        <time>2014-12-16T09:03:37Z</time>
      </trkpt>
      <trkpt lat="42.79814" lon="1.69953">
        <ele>930.94</ele>
        <time>2014-12-16T09:04:19Z</time>
      </trkpt>
      <trkpt lat="42.79822" lon="1.69947">
        <ele>931.81</ele>
        <time>2014-12-16T09:04:40Z</time>
      </trkpt>
      <trkpt lat="42.7983" lon="1.6994">
        <ele>930.16</ele>
        <time>2014-12-16T09:04:58Z</time>
      </trkpt>
      <trkpt lat="42.79838" lon="1.69935">
        <ele>936.89</ele>
        <time>2014-12-16T09:05:21Z</time>
      </trkpt>
      <trkpt lat="42.79847" lon="1.69936">
        <ele>940.28</ele>
        <time>2014-12-16T09:05:34Z</time>
      </trkpt>
      <trkpt lat="42.79857" lon="1.69936">
        <ele>939.08</ele>
        <time>2014-12-16T09:09:37Z</time>
      </trkpt>
      <trkpt lat="42.79866" lon="1.69937">
        <ele>938.93</ele>
        <time>2014-12-16T09:18:46Z</time>
      </trkpt>
      <trkpt lat="42.79875" lon="1.69939">
        <ele>941.91</ele>
        <time>2014-12-16T09:18:54Z</time>
      </trkpt>
      <trkpt lat="42.79884" lon="1.69935">
        <ele>943.57</ele>
        <time>2014-12-16T09:19:13Z</time>
      </trkpt>
      <trkpt lat="42.79894" lon="1.69935">
        <ele>943.58</ele>
        <time>2014-12-16T09:19:31Z</time>
      </trkpt>
      <trkpt lat="42.79903" lon="1.69939">
        <ele>945.61</ele>
        <time>2014-12-16T09:19:47Z</time>
      </trkpt>
      <trkpt lat="42.79912" lon="1.69939">
        <ele>949.26</ele>
        <time>2014-12-16T09:20:32Z</time>
      </trkpt>
      <trkpt lat="42.79922" lon="1.69941">
        <ele>945.97</ele>
        <time>2014-12-16T09:20:39Z</time>
      </trkpt>
      <trkpt lat="42.7992" lon="1.69953">
        <ele>955.28</ele>
        <time>2014-12-16T09:21:28Z</time>
      </trkpt>
      <trkpt lat="42.79915" lon="1.69964">
        <ele>960.53</ele>
        <time>2014-12-16T09:22:02Z</time>
      </trkpt>
      <trkpt lat="42.79913" lon="1.69976">
        <ele>966.99</ele>
        <time>2014-12-16T09:22:30Z</time>
      </trkpt>
      <trkpt lat="42.79913" lon="1.69988">
        <ele>966.57</ele>
        <time>2014-12-16T09:22:47Z</time>
      </trkpt>
      <trkpt lat="42.79908" lon="1.69998">
        <ele>972.55</ele>
        <time>2014-12-16T09:23:20Z</time>
      </trkpt>
      <trkpt lat="42.79902" lon="1.70009">
        <ele>974.75</ele>
        <time>2014-12-16T09:23:42Z</time>
      </trkpt>
      <trkpt lat="42.79896" lon="1.70018">
        <ele>978.28</ele>
        <time>2014-12-16T09:23:54Z</time>
      </trkpt>
      <trkpt lat="42.79887" lon="1.70024">
        <ele>977.88</ele>
        <time>2014-12-16T09:24:09Z</time>
      </trkpt>
      <trkpt lat="42.79879" lon="1.70029">
        <ele>980.81</ele>
        <time>2014-12-16T09:24:29Z</time>
      </trkpt>
      <trkpt lat="42.79872" lon="1.70038">
        <ele>979.74</ele>
        <time>2014-12-16T09:24:40Z</time>
      </trkpt>
      <trkpt lat="42.79868" lon="1.7005">
        <ele>979.51</ele>
        <time>2014-12-16T09:24:58Z</time>
      </trkpt>
      <trkpt lat="42.79861" lon="1.70058">
        <ele>980.92</ele>
        <time>2014-12-16T09:25:14Z</time>
      </trkpt>
      <trkpt lat="42.79852" lon="1.70064">
        <ele>983.97</ele>
        <time>2014-12-16T09:25:25Z</time>
      </trkpt>
      <trkpt lat="42.79845" lon="1.70072">
        <ele>989.31</ele>
        <time>2014-12-16T09:27:53Z</time>
      </trkpt>
      <trkpt lat="42.79844" lon="1.70086">
        <ele>987.69</ele>
        <time>2014-12-16T09:28:12Z</time>
      </trkpt>
      <trkpt lat="42.79838" lon="1.70097">
        <ele>991.92</ele>
        <time>2014-12-16T09:28:27Z</time>
      </trkpt>
      <trkpt lat="42.79835" lon="1.70109">
        <ele>988.92</ele>
        <time>2014-12-16T09:28:36Z</time>
      </trkpt>
      <trkpt lat="42.79832" lon="1.70121">
        <ele>993.81</ele>
        <time>2014-12-16T09:28:53Z</time>
      </trkpt>
      <trkpt lat="42.79829" lon="1.70133">
        <ele>994.28</ele>
        <time>2014-12-16T09:29:10Z</time>
      </trkpt>
      <trkpt lat="42.79826" lon="1.70145">
        <ele>995.19</ele>
        <time>2014-12-16T09:29:21Z</time>
      </trkpt>
      <trkpt lat="42.79822" lon="1.70156">
        <ele>995.07</ele>
        <time>2014-12-16T09:30:06Z</time>
      </trkpt>
      <trkpt lat="42.79813" lon="1.70162">
        <ele>995.64</ele>
        <time>2014-12-16T09:30:17Z</time>
      </trkpt>
      <trkpt lat="42.79804" lon="1.70164">
        <ele>994.33</ele>
        <time>2014-12-16T09:30:28Z</time>
      </trkpt>
      <trkpt lat="42.79794" lon="1.70168">
        <ele>993.87</ele>
        <time>2014-12-16T09:30:40Z</time>
      </trkpt>
      <trkpt lat="42.79786" lon="1.70175">
        <ele>994.31</ele>
        <time>2014-12-16T09:30:50Z</time>
      </trkpt>
      <trkpt lat="42.79778" lon="1.7018">
        <ele>995.47</ele>
        <time>2014-12-16T09:31:13Z</time>
      </trkpt>
      <trkpt lat="42.79769" lon="1.70181">
        <ele>994.72</ele>
        <time>2014-12-16T09:31:24Z</time>
      </trkpt>
      <trkpt lat="42.7976" lon="1.70186">
        <ele>994.3</ele>
        <time>2014-12-16T09:31:35Z</time>
      </trkpt>
      <trkpt lat="42.79751" lon="1.70188">
        <ele>997.24</ele>
        <time>2014-12-16T09:31:47Z</time>
      </trkpt>
      <trkpt lat="42.79742" lon="1.70193">
        <ele>998.22</ele>
        <time>2014-12-16T09:32:00Z</time>
      </trkpt>
      <trkpt lat="42.79737" lon="1.70203">
        <ele>997.32</ele>
        <time>2014-12-16T09:32:22Z</time>
      </trkpt>
      <trkpt lat="42.79732" lon="1.70214">
        <ele>1000.82</ele>
        <time>2014-12-16T09:32:50Z</time>
      </trkpt>
      <trkpt lat="42.79725" lon="1.70221">
        <ele>1002.37</ele>
        <time>2014-12-16T09:33:41Z</time>
      </trkpt>
      <trkpt lat="42.79716" lon="1.70226">
        <ele>1007.37</ele>
        <time>2014-12-16T09:34:14Z</time>
      </trkpt>
      <trkpt lat="42.79707" lon="1.70227">
        <ele>1009.28</ele>
        <time>2014-12-16T09:34:28Z</time>
      </trkpt>
      <trkpt lat="42.79698" lon="1.70233">
        <ele>1005.67</ele>
        <time>2014-12-16T09:37:14Z</time>
      </trkpt>
      <trkpt lat="42.79689" lon="1.70236">
        <ele>1001.89</ele>
        <time>2014-12-16T09:37:47Z</time>
      </trkpt>
      <trkpt lat="42.79681" lon="1.70241">
        <ele>1001.31</ele>
        <time>2014-12-16T09:38:10Z</time>
      </trkpt>
      <trkpt lat="42.79671" lon="1.7024">
        <ele>1005.9</ele>
        <time>2014-12-16T09:38:27Z</time>
      </trkpt>
      <trkpt lat="42.79662" lon="1.70243">
        <ele>1005.85</ele>
        <time>2014-12-16T09:38:39Z</time>
      </trkpt>
      <trkpt lat="42.79653" lon="1.70246">
        <ele>1006.34</ele>
        <time>2014-12-16T09:38:52Z</time>
      </trkpt>
      <trkpt lat="42.79644" lon="1.70241">
        <ele>1006.48</ele>
        <time>2014-12-16T09:39:07Z</time>
      </trkpt>
      <trkpt lat="42.79635" lon="1.70242">
        <ele>1008.22</ele>
        <time>2014-12-16T09:39:34Z</time>
      </trkpt>
      <trkpt lat="42.79627" lon="1.70247">
        <ele>1010.76</ele>
        <time>2014-12-16T09:39:46Z</time>
      </trkpt>
      <trkpt lat="42.79618" lon="1.70254">
        <ele>1010.34</ele>
        <time>2014-12-16T09:39:59Z</time>
      </trkpt>
      <trkpt lat="42.79611" lon="1.70263">
        <ele>1010.2</ele>
        <time>2014-12-16T09:40:08Z</time>
      </trkpt>
      <trkpt lat="42.79605" lon="1.70274">
        <ele>1008.5</ele>
        <time>2014-12-16T09:40:24Z</time>
      </trkpt>
      <trkpt lat="42.79596" lon="1.70275">
        <ele>1013.75</ele>
        <time>2014-12-16T09:40:53Z</time>
      </trkpt>
      <trkpt lat="42.79592" lon="1.70286">
        <ele>1024.69</ele>
        <time>2014-12-16T09:41:53Z</time>
      </trkpt>
      <trkpt lat="42.79596" lon="1.70298">
        <ele>1038.39</ele>
        <time>2014-12-16T09:42:51Z</time>
      </trkpt>
      <trkpt lat="42.79597" lon="1.7031">
        <ele>1045.53</ele>
        <time>2014-12-16T09:43:49Z</time>
      </trkpt>
      <trkpt lat="42.79591" lon="1.70318">
        <ele>1048.22</ele>
        <time>2014-12-16T09:44:17Z</time>
      </trkpt>
      <trkpt lat="42.79585" lon="1.70329">
        <ele>1049.08</ele>
        <time>2014-12-16T09:44:37Z</time>
      </trkpt>
      <trkpt lat="42.7958" lon="1.70339">
        <ele>1048.91</ele>
        <time>2014-12-16T09:45:03Z</time>
      </trkpt>
      <trkpt lat="42.79578" lon="1.70351">
        <ele>1056.31</ele>
        <time>2014-12-16T09:47:51Z</time>
      </trkpt>
      <trkpt lat="42.79588" lon="1.70353">
        <ele>1056.41</ele>
        <time>2014-12-16T09:47:56Z</time>
      </trkpt>
      <trkpt lat="42.79598" lon="1.70353">
        <ele>1059.95</ele>
        <time>2014-12-16T09:48:06Z</time>
      </trkpt>
      <trkpt lat="42.79607" lon="1.70357">
        <ele>1063.38</ele>
        <time>2014-12-16T09:48:58Z</time>
      </trkpt>
      <trkpt lat="42.79616" lon="1.70357">
        <ele>1065.81</ele>
        <time>2014-12-16T09:53:30Z</time>
      </trkpt>
      <trkpt lat="42.79624" lon="1.70362">
        <ele>1061.26</ele>
        <time>2014-12-16T09:53:37Z</time>
      </trkpt>
      <trkpt lat="42.79633" lon="1.70363">
        <ele>1058.48</ele>
        <time>2014-12-16T09:53:46Z</time>
      </trkpt>
      <trkpt lat="42.7964" lon="1.70372">
        <ele>1075.19</ele>
        <time>2014-12-16T09:54:17Z</time>
      </trkpt>
      <trkpt lat="42.79643" lon="1.70383">
        <ele>1072.32</ele>
        <time>2014-12-16T09:56:38Z</time>
      </trkpt>
      <trkpt lat="42.79636" lon="1.70392">
        <ele>1079.26</ele>
        <time>2014-12-16T09:59:33Z</time>
      </trkpt>
      <trkpt lat="42.79628" lon="1.70398">
        <ele>1080</ele>
        <time>2014-12-16T10:00:09Z</time>
      </trkpt>
      <trkpt lat="42.79626" lon="1.7041">
        <ele>1081.06</ele>
        <time>2014-12-16T10:00:42Z</time>
      </trkpt>
      <trkpt lat="42.79622" lon="1.70422">
        <ele>1086.8</ele>
        <time>2014-12-16T10:01:41Z</time>
      </trkpt>
      <trkpt lat="42.79615" lon="1.70431">
        <ele>1091.12</ele>
        <time>2014-12-16T10:02:11Z</time>
      </trkpt>
      <trkpt lat="42.79608" lon="1.70437">
        <ele>1087.32</ele>
        <time>2014-12-16T10:03:11Z</time>
      </trkpt>
      <trkpt lat="42.79599" lon="1.70441">
        <ele>1096.27</ele>
        <time>2014-12-16T10:03:45Z</time>
      </trkpt>
      <trkpt lat="42.7959" lon="1.70445">
        <ele>1105.9</ele>
        <time>2014-12-16T10:04:11Z</time>
      </trkpt>
      <trkpt lat="42.79583" lon="1.70453">
        <ele>1111.45</ele>
        <time>2014-12-16T10:04:40Z</time>
      </trkpt>
      <trkpt lat="42.7958" lon="1.70465">
        <ele>1125.3</ele>
        <time>2014-12-16T10:05:36Z</time>
      </trkpt>
      <trkpt lat="42.79584" lon="1.70477">
        <ele>1129.91</ele>
        <time>2014-12-16T10:06:07Z</time>
      </trkpt>
      <trkpt lat="42.79587" lon="1.70488">
        <ele>1132.86</ele>
        <time>2014-12-16T10:06:23Z</time>
      </trkpt>
      <trkpt lat="42.7958" lon="1.70496">
        <ele>1129.47</ele>
        <time>2014-12-16T10:07:11Z</time>
      </trkpt>
      <trkpt lat="42.79572" lon="1.70501">
        <ele>1133.33</ele>
        <time>2014-12-16T10:07:27Z</time>
      </trkpt>
      <trkpt lat="42.79563" lon="1.70506">
        <ele>1132.44</ele>
        <time>2014-12-16T10:08:00Z</time>
      </trkpt>
      <trkpt lat="42.79554" lon="1.70505">
        <ele>1130.49</ele>
        <time>2014-12-16T10:08:12Z</time>
      </trkpt>
      <trkpt lat="42.79546" lon="1.70512">
        <ele>1131.36</ele>
        <time>2014-12-16T10:08:24Z</time>
      </trkpt>
      <trkpt lat="42.79538" lon="1.70517">
        <ele>1138.06</ele>
        <time>2014-12-16T10:08:48Z</time>
      </trkpt>
      <trkpt lat="42.7953" lon="1.70525">
        <ele>1139.1</ele>
        <time>2014-12-16T10:09:08Z</time>
      </trkpt>
      <trkpt lat="42.79522" lon="1.70533">
        <ele>1143.56</ele>
        <time>2014-12-16T10:09:34Z</time>
      </trkpt>
      <trkpt lat="42.79515" lon="1.7054">
        <ele>1142.22</ele>
        <time>2014-12-16T10:09:44Z</time>
      </trkpt>
      <trkpt lat="42.79508" lon="1.70548">
        <ele>1145.29</ele>
        <time>2014-12-16T10:09:54Z</time>
      </trkpt>
      <trkpt lat="42.79498" lon="1.70549">
        <ele>1147.28</ele>
        <time>2014-12-16T10:10:13Z</time>
      </trkpt>
      <trkpt lat="42.79489" lon="1.70552">
        <ele>1150.24</ele>
        <time>2014-12-16T10:15:35Z</time>
      </trkpt>
      <trkpt lat="42.79484" lon="1.70563">
        <ele>1150.94</ele>
        <time>2014-12-16T10:15:49Z</time>
      </trkpt>
      <trkpt lat="42.79476" lon="1.70571">
        <ele>1151.92</ele>
        <time>2014-12-16T10:16:01Z</time>
      </trkpt>
      <trkpt lat="42.7947" lon="1.70581">
        <ele>1151.94</ele>
        <time>2014-12-16T10:16:11Z</time>
      </trkpt>
      <trkpt lat="42.79464" lon="1.7059">
        <ele>1150.13</ele>
        <time>2014-12-16T10:16:49Z</time>
      </trkpt>
      <trkpt lat="42.79471" lon="1.7058">
        <ele>1150.17</ele>
        <time>2014-12-16T10:19:20Z</time>
      </trkpt>
      <trkpt lat="42.79478" lon="1.70571">
        <ele>1151.37</ele>
        <time>2014-12-16T10:19:29Z</time>
      </trkpt>
      <trkpt lat="42.79486" lon="1.70565">
        <ele>1151.43</ele>
        <time>2014-12-16T10:19:50Z</time>
      </trkpt>
      <trkpt lat="42.79494" lon="1.70556">
        <ele>1149.39</ele>
        <time>2014-12-16T10:20:05Z</time>
      </trkpt>
      <trkpt lat="42.79497" lon="1.70545">
        <ele>1148.81</ele>
        <time>2014-12-16T10:54:55Z</time>
      </trkpt>
      <trkpt lat="42.79506" lon="1.70549">
        <ele>1147.29</ele>
        <time>2014-12-16T10:58:51Z</time>
      </trkpt>
      <trkpt lat="42.79513" lon="1.70541">
        <ele>1143.97</ele>
        <time>2014-12-16T10:58:59Z</time>
      </trkpt>
      <trkpt lat="42.79522" lon="1.70535">
        <ele>1142.43</ele>
        <time>2014-12-16T10:59:08Z</time>
      </trkpt>
      <trkpt lat="42.79528" lon="1.70525">
        <ele>1139.64</ele>
        <time>2014-12-16T10:59:24Z</time>
      </trkpt>
      <trkpt lat="42.79537" lon="1.70521">
        <ele>1137.1</ele>
        <time>2014-12-16T10:59:34Z</time>
      </trkpt>
      <trkpt lat="42.79543" lon="1.70512">
        <ele>1132.32</ele>
        <time>2014-12-16T10:59:50Z</time>
      </trkpt>
      <trkpt lat="42.7955" lon="1.70502">
        <ele>1129.49</ele>
        <time>2014-12-16T11:00:01Z</time>
      </trkpt>
      <trkpt lat="42.79559" lon="1.70499">
        <ele>1131.18</ele>
        <time>2014-12-16T11:00:09Z</time>
      </trkpt>
      <trkpt lat="42.79568" lon="1.705">
        <ele>1129.33</ele>
        <time>2014-12-16T11:00:38Z</time>
      </trkpt>
      <trkpt lat="42.79577" lon="1.70497">
        <ele>1127.79</ele>
        <time>2014-12-16T11:01:14Z</time>
      </trkpt>
      <trkpt lat="42.79586" lon="1.70493">
        <ele>1123.04</ele>
        <time>2014-12-16T11:02:05Z</time>
      </trkpt>
      <trkpt lat="42.79581" lon="1.70482">
        <ele>1124.93</ele>
        <time>2014-12-16T11:02:30Z</time>
      </trkpt>
      <trkpt lat="42.7958" lon="1.70469">
        <ele>1121.35</ele>
        <time>2014-12-16T11:03:08Z</time>
      </trkpt>
      <trkpt lat="42.79582" lon="1.70457">
        <ele>1119.19</ele>
        <time>2014-12-16T11:03:35Z</time>
      </trkpt>
      <trkpt lat="42.79586" lon="1.70444">
        <ele>1117.34</ele>
        <time>2014-12-16T11:03:59Z</time>
      </trkpt>
      <trkpt lat="42.79591" lon="1.70434">
        <ele>1112.32</ele>
        <time>2014-12-16T11:04:21Z</time>
      </trkpt>
      <trkpt lat="42.79599" lon="1.70428">
        <ele>1108.38</ele>
        <time>2014-12-16T11:04:45Z</time>
      </trkpt>
      <trkpt lat="42.79606" lon="1.7042">
        <ele>1097.31</ele>
        <time>2014-12-16T11:06:04Z</time>
      </trkpt>
      <trkpt lat="42.79615" lon="1.70415">
        <ele>1092.35</ele>
        <time>2014-12-16T11:06:35Z</time>
      </trkpt>
      <trkpt lat="42.79625" lon="1.70413">
        <ele>1088.44</ele>
        <time>2014-12-16T11:07:20Z</time>
      </trkpt>
      <trkpt lat="42.79628" lon="1.70402">
        <ele>1081.95</ele>
        <time>2014-12-16T11:08:10Z</time>
      </trkpt>
      <trkpt lat="42.79635" lon="1.70393">
        <ele>1078.12</ele>
        <time>2014-12-16T11:08:24Z</time>
      </trkpt>
      <trkpt lat="42.79642" lon="1.70383">
        <ele>1076.56</ele>
        <time>2014-12-16T11:13:34Z</time>
      </trkpt>
      <trkpt lat="42.79645" lon="1.70372">
        <ele>1075.2</ele>
        <time>2014-12-16T11:13:48Z</time>
      </trkpt>
      <trkpt lat="42.79643" lon="1.70359">
        <ele>1075.43</ele>
        <time>2014-12-16T11:14:19Z</time>
      </trkpt>
      <trkpt lat="42.79638" lon="1.70348">
        <ele>1070.06</ele>
        <time>2014-12-16T11:14:32Z</time>
      </trkpt>
      <trkpt lat="42.79633" lon="1.70337">
        <ele>1065.6</ele>
        <time>2014-12-16T11:14:57Z</time>
      </trkpt>
      <trkpt lat="42.79629" lon="1.70326">
        <ele>1060.39</ele>
        <time>2014-12-16T11:15:26Z</time>
      </trkpt>
      <trkpt lat="42.79626" lon="1.70314">
        <ele>1051.98</ele>
        <time>2014-12-16T11:16:03Z</time>
      </trkpt>
      <trkpt lat="42.7962" lon="1.70304">
        <ele>1049.32</ele>
        <time>2014-12-16T11:16:40Z</time>
      </trkpt>
      <trkpt lat="42.79612" lon="1.70299">
        <ele>1045.32</ele>
        <time>2014-12-16T11:17:08Z</time>
      </trkpt>
      <trkpt lat="42.79603" lon="1.70298">
        <ele>1037.36</ele>
        <time>2014-12-16T11:17:36Z</time>
      </trkpt>
      <trkpt lat="42.79603" lon="1.70286">
        <ele>1036.31</ele>
        <time>2014-12-16T11:18:29Z</time>
      </trkpt>
      <trkpt lat="42.79603" lon="1.70274">
        <ele>1027.33</ele>
        <time>2014-12-16T11:19:01Z</time>
      </trkpt>
      <trkpt lat="42.79605" lon="1.70262">
        <ele>1021.42</ele>
        <time>2014-12-16T11:21:49Z</time>
      </trkpt>
      <trkpt lat="42.79613" lon="1.70257">
        <ele>1018.17</ele>
        <time>2014-12-16T11:22:04Z</time>
      </trkpt>
      <trkpt lat="42.79621" lon="1.7025">
        <ele>1018.11</ele>
        <time>2014-12-16T11:22:13Z</time>
      </trkpt>
      <trkpt lat="42.79629" lon="1.70244">
        <ele>1019.29</ele>
        <time>2014-12-16T11:22:24Z</time>
      </trkpt>
      <trkpt lat="42.79637" lon="1.70238">
        <ele>1015.44</ele>
        <time>2014-12-16T11:22:36Z</time>
      </trkpt>
      <trkpt lat="42.79644" lon="1.70229">
        <ele>1014.94</ele>
        <time>2014-12-16T11:22:52Z</time>
      </trkpt>
      <trkpt lat="42.79653" lon="1.70226">
        <ele>1017.62</ele>
        <time>2014-12-16T11:23:02Z</time>
      </trkpt>
      <trkpt lat="42.79661" lon="1.70219">
        <ele>1015.87</ele>
        <time>2014-12-16T11:23:15Z</time>
      </trkpt>
      <trkpt lat="42.7967" lon="1.70217">
        <ele>1014.32</ele>
        <time>2014-12-16T11:23:44Z</time>
      </trkpt>
      <trkpt lat="42.79679" lon="1.70218">
        <ele>1010.32</ele>
        <time>2014-12-16T11:24:19Z</time>
      </trkpt>
      <trkpt lat="42.79688" lon="1.70222">
        <ele>1010.8</ele>
        <time>2014-12-16T11:24:39Z</time>
      </trkpt>
      <trkpt lat="42.79697" lon="1.70222">
        <ele>1008.06</ele>
        <time>2014-12-16T11:24:48Z</time>
      </trkpt>
      <trkpt lat="42.79706" lon="1.70221">
        <ele>1009.25</ele>
        <time>2014-12-16T11:25:04Z</time>
      </trkpt>
      <trkpt lat="42.79716" lon="1.70221">
        <ele>1008.88</ele>
        <time>2014-12-16T11:25:19Z</time>
      </trkpt>
      <trkpt lat="42.79725" lon="1.70222">
        <ele>1011.17</ele>
        <time>2014-12-16T11:25:52Z</time>
      </trkpt>
      <trkpt lat="42.79734" lon="1.70217">
        <ele>1012.52</ele>
        <time>2014-12-16T11:26:08Z</time>
      </trkpt>
      <trkpt lat="42.79742" lon="1.7021">
        <ele>1011.12</ele>
        <time>2014-12-16T11:26:26Z</time>
      </trkpt>
      <trkpt lat="42.7975" lon="1.70203">
        <ele>1005.78</ele>
        <time>2014-12-16T11:26:38Z</time>
      </trkpt>
      <trkpt lat="42.79759" lon="1.70199">
        <ele>1002.1</ele>
        <time>2014-12-16T11:27:07Z</time>
      </trkpt>
      <trkpt lat="42.79768" lon="1.70196">
        <ele>1000.23</ele>
        <time>2014-12-16T11:27:18Z</time>
      </trkpt>
      <trkpt lat="42.79776" lon="1.70191">
        <ele>994.44</ele>
        <time>2014-12-16T11:27:36Z</time>
      </trkpt>
      <trkpt lat="42.79785" lon="1.70187">
        <ele>994.37</ele>
        <time>2014-12-16T11:27:45Z</time>
      </trkpt>
      <trkpt lat="42.79793" lon="1.7018">
        <ele>995.9</ele>
        <time>2014-12-16T11:27:57Z</time>
      </trkpt>
      <trkpt lat="42.79803" lon="1.7018">
        <ele>998.24</ele>
        <time>2014-12-16T11:28:07Z</time>
      </trkpt>
      <trkpt lat="42.79811" lon="1.70173">
        <ele>998.2</ele>
        <time>2014-12-16T11:28:16Z</time>
      </trkpt>
      <trkpt lat="42.79818" lon="1.70163">
        <ele>1000.21</ele>
        <time>2014-12-16T11:28:34Z</time>
      </trkpt>
      <trkpt lat="42.79827" lon="1.70165">
        <ele>1000.49</ele>
        <time>2014-12-16T11:28:45Z</time>
      </trkpt>
      <trkpt lat="42.79832" lon="1.70153">
        <ele>996.4</ele>
        <time>2014-12-16T11:28:56Z</time>
      </trkpt>
      <trkpt lat="42.79835" lon="1.70141">
        <ele>994.83</ele>
        <time>2014-12-16T11:29:08Z</time>
      </trkpt>
      <trkpt lat="42.79842" lon="1.7013">
        <ele>990.79</ele>
        <time>2014-12-16T11:29:21Z</time>
      </trkpt>
      <trkpt lat="42.79844" lon="1.70118">
        <ele>993.06</ele>
        <time>2014-12-16T11:29:33Z</time>
      </trkpt>
      <trkpt lat="42.79847" lon="1.70106">
        <ele>994.11</ele>
        <time>2014-12-16T11:30:08Z</time>
      </trkpt>
      <trkpt lat="42.79853" lon="1.70095">
        <ele>995.25</ele>
        <time>2014-12-16T11:30:18Z</time>
      </trkpt>
      <trkpt lat="42.79854" lon="1.70082">
        <ele>993.21</ele>
        <time>2014-12-16T11:30:26Z</time>
      </trkpt>
      <trkpt lat="42.79861" lon="1.70071">
        <ele>989.36</ele>
        <time>2014-12-16T11:30:36Z</time>
      </trkpt>
      <trkpt lat="42.79868" lon="1.70064">
        <ele>987.78</ele>
        <time>2014-12-16T11:30:46Z</time>
      </trkpt>
      <trkpt lat="42.79872" lon="1.70053">
        <ele>988.43</ele>
        <time>2014-12-16T11:30:58Z</time>
      </trkpt>
      <trkpt lat="42.79874" lon="1.70041">
        <ele>983.32</ele>
        <time>2014-12-16T11:31:34Z</time>
      </trkpt>
      <trkpt lat="42.79883" lon="1.70038">
        <ele>982.18</ele>
        <time>2014-12-16T11:32:07Z</time>
      </trkpt>
      <trkpt lat="42.79893" lon="1.70036">
        <ele>980</ele>
        <time>2014-12-16T11:32:36Z</time>
      </trkpt>
      <trkpt lat="42.79897" lon="1.70025">
        <ele>977.92</ele>
        <time>2014-12-16T11:32:50Z</time>
      </trkpt>
      <trkpt lat="42.79905" lon="1.70019">
        <ele>979.05</ele>
        <time>2014-12-16T11:33:14Z</time>
      </trkpt>
      <trkpt lat="42.7991" lon="1.70008">
        <ele>975.43</ele>
        <time>2014-12-16T11:33:40Z</time>
      </trkpt>
      <trkpt lat="42.79917" lon="1.70002">
        <ele>973.82</ele>
        <time>2014-12-16T11:33:57Z</time>
      </trkpt>
      <trkpt lat="42.79923" lon="1.69991">
        <ele>970.05</ele>
        <time>2014-12-16T11:34:19Z</time>
      </trkpt>
      <trkpt lat="42.79929" lon="1.69982">
        <ele>965.59</ele>
        <time>2014-12-16T11:34:33Z</time>
      </trkpt>
      <trkpt lat="42.79936" lon="1.69974">
        <ele>962.63</ele>
        <time>2014-12-16T11:34:48Z</time>
      </trkpt>
      <trkpt lat="42.79943" lon="1.69966">
        <ele>957.25</ele>
        <time>2014-12-16T11:35:13Z</time>
      </trkpt>
      <trkpt lat="42.79951" lon="1.69959">
        <ele>952.1</ele>
        <time>2014-12-16T11:35:30Z</time>
      </trkpt>
      <trkpt lat="42.79957" lon="1.69949">
        <ele>945.53</ele>
        <time>2014-12-16T11:35:41Z</time>
      </trkpt>
      <trkpt lat="42.79959" lon="1.69937">
        <ele>942.33</ele>
        <time>2014-12-16T11:35:54Z</time>
      </trkpt>
      <trkpt lat="42.79962" lon="1.69925">
        <ele>940.39</ele>
        <time>2014-12-16T11:36:09Z</time>
      </trkpt>
      <trkpt lat="42.79959" lon="1.69913">
        <ele>948.73</ele>
        <time>2014-12-16T11:36:22Z</time>
      </trkpt>
      <trkpt lat="42.79952" lon="1.69904">
        <ele>954.96</ele>
        <time>2014-12-16T11:36:32Z</time>
      </trkpt>
      <trkpt lat="42.79947" lon="1.69893">
        <ele>955.48</ele>
        <time>2014-12-16T11:36:45Z</time>
      </trkpt>
      <trkpt lat="42.79948" lon="1.6988">
        <ele>945.8</ele>
        <time>2014-12-16T11:38:45Z</time>
      </trkpt>
      <trkpt lat="42.79958" lon="1.69881">
        <ele>944.22</ele>
        <time>2014-12-16T11:38:57Z</time>
      </trkpt>
      <trkpt lat="42.79967" lon="1.69884">
        <ele>944.32</ele>
        <time>2014-12-16T11:39:06Z</time>
      </trkpt>
      <trkpt lat="42.79975" lon="1.69889">
        <ele>940.08</ele>
        <time>2014-12-16T11:39:24Z</time>
      </trkpt>
      <trkpt lat="42.79981" lon="1.69899">
        <ele>941.07</ele>
        <time>2014-12-16T11:39:37Z</time>
      </trkpt>
      <trkpt lat="42.79985" lon="1.6991">
        <ele>943.31</ele>
        <time>2014-12-16T11:39:48Z</time>
      </trkpt>
      <trkpt lat="42.79992" lon="1.69919">
        <ele>940.81</ele>
        <time>2014-12-16T11:39:59Z</time>
      </trkpt>
      <trkpt lat="42.79998" lon="1.69929">
        <ele>941.93</ele>
        <time>2014-12-16T11:40:08Z</time>
      </trkpt>
      <trkpt lat="42.80004" lon="1.69939">
        <ele>943.28</ele>
        <time>2014-12-16T11:40:31Z</time>
      </trkpt>
      <trkpt lat="42.80007" lon="1.69951">
        <ele>939.02</ele>
        <time>2014-12-16T11:40:39Z</time>
      </trkpt>
      <trkpt lat="42.80012" lon="1.69963">
        <ele>937.47</ele>
        <time>2014-12-16T11:40:49Z</time>
      </trkpt>
      <trkpt lat="42.80012" lon="1.69975">
        <ele>937.44</ele>
        <time>2014-12-16T11:40:59Z</time>
      </trkpt>
      <trkpt lat="42.80008" lon="1.69987">
        <ele>940.78</ele>
        <time>2014-12-16T11:41:10Z</time>
      </trkpt>
      <trkpt lat="42.80001" lon="1.69994">
        <ele>948.8</ele>
        <time>2014-12-16T11:41:20Z</time>
      </trkpt>
      <trkpt lat="42.79997" lon="1.70005">
        <ele>943.01</ele>
        <time>2014-12-16T11:41:59Z</time>
      </trkpt>
      <trkpt lat="42.7999" lon="1.70014">
        <ele>941.81</ele>
        <time>2014-12-16T11:44:02Z</time>
      </trkpt>
      <trkpt lat="42.79983" lon="1.70022">
        <ele>942.08</ele>
        <time>2014-12-16T11:44:14Z</time>
      </trkpt>
      <trkpt lat="42.79978" lon="1.70032">
        <ele>942.53</ele>
        <time>2014-12-16T11:44:23Z</time>
      </trkpt>
      <trkpt lat="42.79972" lon="1.70043">
        <ele>941.02</ele>
        <time>2014-12-16T11:44:31Z</time>
      </trkpt>
      <trkpt lat="42.79965" lon="1.70052">
        <ele>942.87</ele>
        <time>2014-12-16T11:44:40Z</time>
      </trkpt>
      <trkpt lat="42.79963" lon="1.70064">
        <ele>941.2</ele>
        <time>2014-12-16T11:45:04Z</time>
      </trkpt>
      <trkpt lat="42.79963" lon="1.70077">
        <ele>943.56</ele>
        <time>2014-12-16T11:45:11Z</time>
      </trkpt>
      <trkpt lat="42.79968" lon="1.70088">
        <ele>942.44</ele>
        <time>2014-12-16T11:45:18Z</time>
      </trkpt>
      <trkpt lat="42.79967" lon="1.70101">
        <ele>945.13</ele>
        <time>2014-12-16T11:45:29Z</time>
      </trkpt>
      <trkpt lat="42.79965" lon="1.70113">
        <ele>953.11</ele>
        <time>2014-12-16T11:45:43Z</time>
      </trkpt>
      <trkpt lat="42.79965" lon="1.70125">
        <ele>953.96</ele>
        <time>2014-12-16T11:45:53Z</time>
      </trkpt>
      <trkpt lat="42.79967" lon="1.70138">
        <ele>950.15</ele>
        <time>2014-12-16T11:46:06Z</time>
      </trkpt>
      <trkpt lat="42.79969" lon="1.70151">
        <ele>950.82</ele>
        <time>2014-12-16T11:46:32Z</time>
      </trkpt>
      <trkpt lat="42.79974" lon="1.70162">
        <ele>942.62</ele>
        <time>2014-12-16T11:46:38Z</time>
      </trkpt>
      <trkpt lat="42.7998" lon="1.70172">
        <ele>942.28</ele>
        <time>2014-12-16T11:46:46Z</time>
      </trkpt>
      <trkpt lat="42.79986" lon="1.70181">
        <ele>942.85</ele>
        <time>2014-12-16T11:47:04Z</time>
      </trkpt>
      <trkpt lat="42.79993" lon="1.7019">
        <ele>941.78</ele>
        <time>2014-12-16T11:47:16Z</time>
      </trkpt>
      <trkpt lat="42.79996" lon="1.70202">
        <ele>943.19</ele>
        <time>2014-12-16T11:47:25Z</time>
      </trkpt>
      <trkpt lat="42.79994" lon="1.70216">
        <ele>942.32</ele>
        <time>2014-12-16T11:48:05Z</time>
      </trkpt>
      <trkpt lat="42.7999" lon="1.70227">
        <ele>939.72</ele>
        <time>2014-12-16T11:48:12Z</time>
      </trkpt>
      <trkpt lat="42.79989" lon="1.70241">
        <ele>940.02</ele>
        <time>2014-12-16T11:48:20Z</time>
      </trkpt>
      <trkpt lat="42.79986" lon="1.70253">
        <ele>935.58</ele>
        <time>2014-12-16T11:48:29Z</time>
      </trkpt>
      <trkpt lat="42.79981" lon="1.70264">
        <ele>929.92</ele>
        <time>2014-12-16T11:48:41Z</time>
      </trkpt>
      <trkpt lat="42.79977" lon="1.70276">
        <ele>935.11</ele>
        <time>2014-12-16T11:48:50Z</time>
      </trkpt>
      <trkpt lat="42.79975" lon="1.70289">
        <ele>938.13</ele>
        <time>2014-12-16T11:49:03Z</time>
      </trkpt>
      <trkpt lat="42.79971" lon="1.70301">
        <ele>936.42</ele>
        <time>2014-12-16T11:49:17Z</time>
      </trkpt>
      <trkpt lat="42.79967" lon="1.70313">
        <ele>936.06</ele>
        <time>2014-12-16T11:49:24Z</time>
      </trkpt>
      <trkpt lat="42.79962" lon="1.70324">
        <ele>939.16</ele>
        <time>2014-12-16T11:49:32Z</time>
      </trkpt>
      <trkpt lat="42.7996" lon="1.70336">
        <ele>940.16</ele>
        <time>2014-12-16T11:49:40Z</time>
      </trkpt>
      <trkpt lat="42.79962" lon="1.70348">
        <ele>933.38</ele>
        <time>2014-12-16T11:49:46Z</time>
      </trkpt>
      <trkpt lat="42.7996" lon="1.70361">
        <ele>933.24</ele>
        <time>2014-12-16T11:49:57Z</time>
      </trkpt>
      <trkpt lat="42.79956" lon="1.70372">
        <ele>933.66</ele>
        <time>2014-12-16T11:50:08Z</time>
      </trkpt>
      <trkpt lat="42.79952" lon="1.70384">
        <ele>932.04</ele>
        <time>2014-12-16T11:50:15Z</time>
      </trkpt>
      <trkpt lat="42.79951" lon="1.70396">
        <ele>924.4</ele>
        <time>2014-12-16T11:50:34Z</time>
      </trkpt>
      <trkpt lat="42.79946" lon="1.70408">
        <ele>921.31</ele>
        <time>2014-12-16T11:51:20Z</time>
      </trkpt>
      <trkpt lat="42.7994" lon="1.70417">
        <ele>925.67</ele>
        <time>2014-12-16T11:51:28Z</time>
      </trkpt>
      <trkpt lat="42.79933" lon="1.70425">
        <ele>931.82</ele>
        <time>2014-12-16T11:51:37Z</time>
      </trkpt>
      <trkpt lat="42.79929" lon="1.70437">
        <ele>931.06</ele>
        <time>2014-12-16T11:51:47Z</time>
      </trkpt>
      <trkpt lat="42.79922" lon="1.70448">
        <ele>928.15</ele>
        <time>2014-12-16T11:51:55Z</time>
      </trkpt>
      <trkpt lat="42.79917" lon="1.7046">
        <ele>929.04</ele>
        <time>2014-12-16T11:52:02Z</time>
      </trkpt>
      <trkpt lat="42.7991" lon="1.70469">
        <ele>927.89</ele>
        <time>2014-12-16T11:52:10Z</time>
      </trkpt>
      <trkpt lat="42.79904" lon="1.70478">
        <ele>926.91</ele>
        <time>2014-12-16T11:52:19Z</time>
      </trkpt>
      <trkpt lat="42.79897" lon="1.70486">
        <ele>927.3</ele>
        <time>2014-12-16T11:52:28Z</time>
      </trkpt>
      <trkpt lat="42.79892" lon="1.70498">
        <ele>930.37</ele>
        <time>2014-12-16T11:52:35Z</time>
      </trkpt>
      <trkpt lat="42.79889" lon="1.7051">
        <ele>928.75</ele>
        <time>2014-12-16T11:52:43Z</time>
      </trkpt>
      <trkpt lat="42.79885" lon="1.70522">
        <ele>928.35</ele>
        <time>2014-12-16T11:52:54Z</time>
      </trkpt>
      <trkpt lat="42.7988" lon="1.70534">
        <ele>931.46</ele>
        <time>2014-12-16T11:53:07Z</time>
      </trkpt>
      <trkpt lat="42.79876" lon="1.70545">
        <ele>925.19</ele>
        <time>2014-12-16T11:53:19Z</time>
      </trkpt>
      <trkpt lat="42.79869" lon="1.70554">
        <ele>916.44</ele>
        <time>2014-12-16T11:53:33Z</time>
      </trkpt>
      <trkpt lat="42.79864" lon="1.70565">
        <ele>919.11</ele>
        <time>2014-12-16T11:53:42Z</time>
      </trkpt>
      <trkpt lat="42.79864" lon="1.70577">
        <ele>914.44</ele>
        <time>2014-12-16T11:53:48Z</time>
      </trkpt>
      <trkpt lat="42.79858" lon="1.70588">
        <ele>917.55</ele>
        <time>2014-12-16T11:53:57Z</time>
      </trkpt>
      <trkpt lat="42.79855" lon="1.706">
        <ele>912.57</ele>
        <time>2014-12-16T11:54:09Z</time>
      </trkpt>
      <trkpt lat="42.79849" lon="1.70609">
        <ele>915.86</ele>
        <time>2014-12-16T11:54:18Z</time>
      </trkpt>
      <trkpt lat="42.79844" lon="1.7062">
        <ele>916</ele>
        <time>2014-12-16T11:54:28Z</time>
      </trkpt>
      <trkpt lat="42.7984" lon="1.70631">
        <ele>916.52</ele>
        <time>2014-12-16T11:54:36Z</time>
      </trkpt>
      <trkpt lat="42.79836" lon="1.70642">
        <ele>911.21</ele>
        <time>2014-12-16T11:54:44Z</time>
      </trkpt>
      <trkpt lat="42.79832" lon="1.70654">
        <ele>907.27</ele>
        <time>2014-12-16T11:54:53Z</time>
      </trkpt>
      <trkpt lat="42.79828" lon="1.70665">
        <ele>904.21</ele>
        <time>2014-12-16T11:55:01Z</time>
      </trkpt>
      <trkpt lat="42.79828" lon="1.70678">
        <ele>896.53</ele>
        <time>2014-12-16T11:55:19Z</time>
      </trkpt>
      <trkpt lat="42.79835" lon="1.70688">
        <ele>902.06</ele>
        <time>2014-12-16T11:55:33Z</time>
      </trkpt>
      <trkpt lat="42.79842" lon="1.70695">
        <ele>904.34</ele>
        <time>2014-12-16T11:55:39Z</time>
      </trkpt>
      <trkpt lat="42.79849" lon="1.70703">
        <ele>902.67</ele>
        <time>2014-12-16T11:55:47Z</time>
      </trkpt>
      <trkpt lat="42.79858" lon="1.70708">
        <ele>893.62</ele>
        <time>2014-12-16T11:58:17Z</time>
      </trkpt>
      <trkpt lat="42.79853" lon="1.7072">
        <ele>890.47</ele>
        <time>2014-12-16T12:00:19Z</time>
      </trkpt>
      <trkpt lat="42.7985" lon="1.70731">
        <ele>888.82</ele>
        <time>2014-12-16T12:00:27Z</time>
      </trkpt>
      <trkpt lat="42.79848" lon="1.70744">
        <ele>887.22</ele>
        <time>2014-12-16T12:00:37Z</time>
      </trkpt>
      <trkpt lat="42.79849" lon="1.70756">
        <ele>882</ele>
        <time>2014-12-16T12:00:47Z</time>
      </trkpt>
      <trkpt lat="42.79846" lon="1.70768">
        <ele>876.43</ele>
        <time>2014-12-16T12:01:03Z</time>
      </trkpt>
      <trkpt lat="42.79838" lon="1.70774">
        <ele>876.57</ele>
        <time>2014-12-16T12:01:16Z</time>
      </trkpt>
      <trkpt lat="42.7983" lon="1.70781">
        <ele>883.4</ele>
        <time>2014-12-16T12:01:26Z</time>
      </trkpt>
      <trkpt lat="42.79829" lon="1.70793">
        <ele>885.85</ele>
        <time>2014-12-16T12:01:34Z</time>
      </trkpt>
      <trkpt lat="42.79832" lon="1.70805">
        <ele>886.18</ele>
        <time>2014-12-16T12:01:47Z</time>
      </trkpt>
      <trkpt lat="42.79832" lon="1.70817">
        <ele>887.19</ele>
        <time>2014-12-16T12:01:59Z</time>
      </trkpt>
      <trkpt lat="42.79838" lon="1.70828">
        <ele>894.84</ele>
        <time>2014-12-16T12:02:22Z</time>
      </trkpt>
      <trkpt lat="42.79847" lon="1.70824">
        <ele>900.28</ele>
        <time>2014-12-16T12:02:41Z</time>
      </trkpt>
      <trkpt lat="42.79855" lon="1.70815">
        <ele>903.53</ele>
        <time>2014-12-16T12:02:48Z</time>
      </trkpt>
      <trkpt lat="42.79862" lon="1.70807">
        <ele>908.56</ele>
        <time>2014-12-16T12:02:57Z</time>
      </trkpt>
      <trkpt lat="42.79868" lon="1.70797">
        <ele>910.57</ele>
        <time>2014-12-16T12:03:09Z</time>
      </trkpt>
      <trkpt lat="42.79875" lon="1.70788">
        <ele>915.73</ele>
        <time>2014-12-16T12:03:22Z</time>
      </trkpt>
      <trkpt lat="42.79873" lon="1.70801">
        <ele>915.69</ele>
        <time>2014-12-16T12:05:49Z</time>
      </trkpt>
      <trkpt lat="42.79865" lon="1.70807">
        <ele>912.83</ele>
        <time>2014-12-16T12:06:03Z</time>
      </trkpt>
      <trkpt lat="42.79862" lon="1.7082">
        <ele>911.63</ele>
        <time>2014-12-16T12:06:15Z</time>
      </trkpt>
      <trkpt lat="42.79857" lon="1.70831">
        <ele>912</ele>
        <time>2014-12-16T12:06:24Z</time>
      </trkpt>
      <trkpt lat="42.79853" lon="1.70842">
        <ele>916.14</ele>
        <time>2014-12-16T12:06:32Z</time>
      </trkpt>
      <trkpt lat="42.7985" lon="1.70855">
        <ele>918.27</ele>
        <time>2014-12-16T12:06:40Z</time>
      </trkpt>
      <trkpt lat="42.79844" lon="1.70866">
        <ele>918.02</ele>
        <time>2014-12-16T12:06:48Z</time>
      </trkpt>
      <trkpt lat="42.79838" lon="1.70876">
        <ele>918.11</ele>
        <time>2014-12-16T12:06:57Z</time>
      </trkpt>
      <trkpt lat="42.79832" lon="1.70886">
        <ele>918.91</ele>
        <time>2014-12-16T12:07:06Z</time>
      </trkpt>
      <trkpt lat="42.79826" lon="1.70896">
        <ele>917.52</ele>
        <time>2014-12-16T12:07:16Z</time>
      </trkpt>
      <trkpt lat="42.79825" lon="1.7091">
        <ele>918.56</ele>
        <time>2014-12-16T12:07:25Z</time>
      </trkpt>
      <trkpt lat="42.79823" lon="1.70922">
        <ele>920.47</ele>
        <time>2014-12-16T12:07:33Z</time>
      </trkpt>
      <trkpt lat="42.7982" lon="1.70934">
        <ele>920.19</ele>
        <time>2014-12-16T12:07:43Z</time>
      </trkpt>
      <trkpt lat="42.79818" lon="1.70947">
        <ele>919.18</ele>
        <time>2014-12-16T12:07:53Z</time>
      </trkpt>
      <trkpt lat="42.79815" lon="1.70959">
        <ele>917.71</ele>
        <time>2014-12-16T12:08:02Z</time>
      </trkpt>
      <trkpt lat="42.79813" lon="1.70972">
        <ele>918.53</ele>
        <time>2014-12-16T12:08:09Z</time>
      </trkpt>
      <trkpt lat="42.79817" lon="1.70984">
        <ele>918.32</ele>
        <time>2014-12-16T12:08:17Z</time>
      </trkpt>
      <trkpt lat="42.79824" lon="1.70994">
        <ele>919.75</ele>
        <time>2014-12-16T12:08:27Z</time>
      </trkpt>
      <trkpt lat="42.79829" lon="1.71005">
        <ele>924.97</ele>
        <time>2014-12-16T12:08:38Z</time>
      </trkpt>
      <trkpt lat="42.79837" lon="1.71012">
        <ele>927.31</ele>
        <time>2014-12-16T12:08:49Z</time>
      </trkpt>
      <trkpt lat="42.79846" lon="1.71013">
        <ele>926.32</ele>
        <time>2014-12-16T12:12:11Z</time>
      </trkpt>
      <trkpt lat="42.79843" lon="1.71024">
        <ele>927.01</ele>
        <time>2014-12-16T12:15:08Z</time>
      </trkpt>
      <trkpt lat="42.79843" lon="1.71038">
        <ele>926.38</ele>
        <time>2014-12-16T12:15:16Z</time>
      </trkpt>
      <trkpt lat="42.79843" lon="1.71051">
        <ele>926.32</ele>
        <time>2014-12-16T12:15:24Z</time>
      </trkpt>
      <trkpt lat="42.79845" lon="1.71039">
        <ele>928.3</ele>
        <time>2014-12-16T12:15:50Z</time>
      </trkpt>
      <trkpt lat="42.79843" lon="1.71026">
        <ele>923.78</ele>
        <time>2014-12-16T12:15:58Z</time>
      </trkpt>
      <trkpt lat="42.79846" lon="1.71015">
        <ele>923.13</ele>
        <time>2014-12-16T12:21:18Z</time>
      </trkpt>
      <trkpt lat="42.79837" lon="1.71011">
        <ele>927.63</ele>
        <time>2014-12-16T12:22:38Z</time>
      </trkpt>
      <trkpt lat="42.7983" lon="1.71003">
        <ele>925.95</ele>
        <time>2014-12-16T12:23:42Z</time>
      </trkpt>
      <trkpt lat="42.79825" lon="1.70992">
        <ele>924.45</ele>
        <time>2014-12-16T12:23:50Z</time>
      </trkpt>
      <trkpt lat="42.79821" lon="1.70982">
        <ele>924.3</ele>
        <time>2014-12-16T12:23:59Z</time>
      </trkpt>
      <trkpt lat="42.79822" lon="1.70969">
        <ele>922.65</ele>
        <time>2014-12-16T12:24:23Z</time>
      </trkpt>
      <trkpt lat="42.79824" lon="1.70955">
        <ele>917.71</ele>
        <time>2014-12-16T12:24:51Z</time>
      </trkpt>
      <trkpt lat="42.79826" lon="1.70943">
        <ele>918.24</ele>
        <time>2014-12-16T12:25:00Z</time>
      </trkpt>
      <trkpt lat="42.7983" lon="1.70931">
        <ele>918.32</ele>
        <time>2014-12-16T12:25:11Z</time>
      </trkpt>
      <trkpt lat="42.79834" lon="1.70921">
        <ele>918.92</ele>
        <time>2014-12-16T12:25:22Z</time>
      </trkpt>
      <trkpt lat="42.79839" lon="1.7091">
        <ele>919.1</ele>
        <time>2014-12-16T12:25:33Z</time>
      </trkpt>
      <trkpt lat="42.79844" lon="1.70899">
        <ele>918.48</ele>
        <time>2014-12-16T12:25:45Z</time>
      </trkpt>
      <trkpt lat="42.79851" lon="1.70889">
        <ele>920.31</ele>
        <time>2014-12-16T12:25:53Z</time>
      </trkpt>
      <trkpt lat="42.79853" lon="1.70876">
        <ele>919.83</ele>
        <time>2014-12-16T12:26:01Z</time>
      </trkpt>
      <trkpt lat="42.79857" lon="1.70864">
        <ele>919.86</ele>
        <time>2014-12-16T12:26:10Z</time>
      </trkpt>
      <trkpt lat="42.7986" lon="1.70851">
        <ele>918.36</ele>
        <time>2014-12-16T12:26:19Z</time>
      </trkpt>
      <trkpt lat="42.79863" lon="1.70839">
        <ele>922.02</ele>
        <time>2014-12-16T12:26:29Z</time>
      </trkpt>
      <trkpt lat="42.79868" lon="1.70827">
        <ele>921.91</ele>
        <time>2014-12-16T12:26:38Z</time>
      </trkpt>
      <trkpt lat="42.79872" lon="1.70815">
        <ele>921.53</ele>
        <time>2014-12-16T12:26:47Z</time>
      </trkpt>
      <trkpt lat="42.79877" lon="1.70804">
        <ele>918.1</ele>
        <time>2014-12-16T12:26:55Z</time>
      </trkpt>
      <trkpt lat="42.79881" lon="1.70791">
        <ele>916.88</ele>
        <time>2014-12-16T12:27:05Z</time>
      </trkpt>
      <trkpt lat="42.79871" lon="1.70792">
        <ele>914.59</ele>
        <time>2014-12-16T12:27:27Z</time>
      </trkpt>
      <trkpt lat="42.79864" lon="1.708">
        <ele>914.32</ele>
        <time>2014-12-16T12:27:36Z</time>
      </trkpt>
      <trkpt lat="42.79856" lon="1.70807">
        <ele>914.34</ele>
        <time>2014-12-16T12:27:46Z</time>
      </trkpt>
      <trkpt lat="42.79848" lon="1.70815">
        <ele>914.52</ele>
        <time>2014-12-16T12:27:55Z</time>
      </trkpt>
      <trkpt lat="42.79842" lon="1.70825">
        <ele>911.99</ele>
        <time>2014-12-16T12:28:04Z</time>
      </trkpt>
      <trkpt lat="42.79844" lon="1.70812">
        <ele>910.4</ele>
        <time>2014-12-16T12:28:41Z</time>
      </trkpt>
      <trkpt lat="42.79847" lon="1.70799">
        <ele>910.85</ele>
        <time>2014-12-16T12:28:50Z</time>
      </trkpt>
      <trkpt lat="42.79851" lon="1.70788">
        <ele>906.38</ele>
        <time>2014-12-16T12:29:03Z</time>
      </trkpt>
      <trkpt lat="42.79853" lon="1.70774">
        <ele>899.96</ele>
        <time>2014-12-16T12:29:11Z</time>
      </trkpt>
      <trkpt lat="42.79855" lon="1.7076">
        <ele>897</ele>
        <time>2014-12-16T12:29:19Z</time>
      </trkpt>
      <trkpt lat="42.79856" lon="1.70748">
        <ele>894.83</ele>
        <time>2014-12-16T12:29:26Z</time>
      </trkpt>
      <trkpt lat="42.79858" lon="1.70734">
        <ele>894.21</ele>
        <time>2014-12-16T12:29:33Z</time>
      </trkpt>
      <trkpt lat="42.79862" lon="1.70722">
        <ele>894.02</ele>
        <time>2014-12-16T12:29:40Z</time>
      </trkpt>
      <trkpt lat="42.79867" lon="1.7071">
        <ele>895.54</ele>
        <time>2014-12-16T12:29:47Z</time>
      </trkpt>
      <trkpt lat="42.79864" lon="1.70699">
        <ele>896.06</ele>
        <time>2014-12-16T12:29:55Z</time>
      </trkpt>
      <trkpt lat="42.79866" lon="1.70686">
        <ele>896.2</ele>
        <time>2014-12-16T12:30:09Z</time>
      </trkpt>
      <trkpt lat="42.79871" lon="1.70675">
        <ele>897.44</ele>
        <time>2014-12-16T12:30:19Z</time>
      </trkpt>
      <trkpt lat="42.79876" lon="1.70663">
        <ele>894.57</ele>
        <time>2014-12-16T12:30:33Z</time>
      </trkpt>
      <trkpt lat="42.79884" lon="1.70654">
        <ele>895.76</ele>
        <time>2014-12-16T12:30:39Z</time>
      </trkpt>
      <trkpt lat="42.7989" lon="1.70645">
        <ele>896.11</ele>
        <time>2014-12-16T12:30:46Z</time>
      </trkpt>
      <trkpt lat="42.79896" lon="1.70635">
        <ele>897.01</ele>
        <time>2014-12-16T12:30:52Z</time>
      </trkpt>
      <trkpt lat="42.79894" lon="1.70623">
        <ele>900.25</ele>
        <time>2014-12-16T12:31:10Z</time>
      </trkpt>
      <trkpt lat="42.79897" lon="1.7061">
        <ele>893.8</ele>
        <time>2014-12-16T12:31:16Z</time>
      </trkpt>
      <trkpt lat="42.79903" lon="1.70601">
        <ele>903.06</ele>
        <time>2014-12-16T12:31:28Z</time>
      </trkpt>
      <trkpt lat="42.79907" lon="1.7059">
        <ele>899.87</ele>
        <time>2014-12-16T12:31:36Z</time>
      </trkpt>
      <trkpt lat="42.79913" lon="1.7058">
        <ele>901.13</ele>
        <time>2014-12-16T12:31:48Z</time>
      </trkpt>
      <trkpt lat="42.7992" lon="1.70573">
        <ele>902.99</ele>
        <time>2014-12-16T12:31:59Z</time>
      </trkpt>
      <trkpt lat="42.79928" lon="1.70565">
        <ele>902.59</ele>
        <time>2014-12-16T12:32:11Z</time>
      </trkpt>
      <trkpt lat="42.79935" lon="1.70559">
        <ele>904.22</ele>
        <time>2014-12-16T12:32:25Z</time>
      </trkpt>
      <trkpt lat="42.79941" lon="1.70549">
        <ele>900.11</ele>
        <time>2014-12-16T12:32:37Z</time>
      </trkpt>
      <trkpt lat="42.7995" lon="1.70542">
        <ele>901.3</ele>
        <time>2014-12-16T12:32:45Z</time>
      </trkpt>
      <trkpt lat="42.79958" lon="1.70535">
        <ele>901.27</ele>
        <time>2014-12-16T12:32:57Z</time>
      </trkpt>
      <trkpt lat="42.79966" lon="1.70528">
        <ele>903.31</ele>
        <time>2014-12-16T12:33:05Z</time>
      </trkpt>
      <trkpt lat="42.79973" lon="1.70519">
        <ele>904.74</ele>
        <time>2014-12-16T12:33:13Z</time>
      </trkpt>
      <trkpt lat="42.79979" lon="1.7051">
        <ele>908.76</ele>
        <time>2014-12-16T12:33:25Z</time>
      </trkpt>
      <trkpt lat="42.79985" lon="1.70499">
        <ele>908.75</ele>
        <time>2014-12-16T12:33:34Z</time>
      </trkpt>
      <trkpt lat="42.79991" lon="1.70489">
        <ele>904.6</ele>
        <time>2014-12-16T12:33:44Z</time>
      </trkpt>
      <trkpt lat="42.79999" lon="1.7048">
        <ele>902.06</ele>
        <time>2014-12-16T12:33:52Z</time>
      </trkpt>
      <trkpt lat="42.80006" lon="1.70471">
        <ele>900.39</ele>
        <time>2014-12-16T12:34:04Z</time>
      </trkpt>
      <trkpt lat="42.80014" lon="1.70468">
        <ele>903.66</ele>
        <time>2014-12-16T12:34:15Z</time>
      </trkpt>
      <trkpt lat="42.80022" lon="1.70461">
        <ele>900.34</ele>
        <time>2014-12-16T12:34:25Z</time>
      </trkpt>
      <trkpt lat="42.80029" lon="1.70451">
        <ele>896.42</ele>
        <time>2014-12-16T12:34:32Z</time>
      </trkpt>
      <trkpt lat="42.80036" lon="1.70442">
        <ele>898.85</ele>
        <time>2014-12-16T12:34:39Z</time>
      </trkpt>
      <trkpt lat="42.80043" lon="1.70433">
        <ele>897.31</ele>
        <time>2014-12-16T12:34:47Z</time>
      </trkpt>
      <trkpt lat="42.80048" lon="1.70421">
        <ele>890.47</ele>
        <time>2014-12-16T12:34:55Z</time>
      </trkpt>
      <trkpt lat="42.80053" lon="1.70409">
        <ele>885.22</ele>
        <time>2014-12-16T12:35:09Z</time>
      </trkpt>
      <trkpt lat="42.80058" lon="1.70398">
        <ele>882.72</ele>
        <time>2014-12-16T12:35:14Z</time>
      </trkpt>
      <trkpt lat="42.80064" lon="1.70388">
        <ele>880.61</ele>
        <time>2014-12-16T12:35:19Z</time>
      </trkpt>
      <trkpt lat="42.80069" lon="1.70376">
        <ele>878.93</ele>
        <time>2014-12-16T12:35:27Z</time>
      </trkpt>
      <trkpt lat="42.80073" lon="1.70364">
        <ele>876.39</ele>
        <time>2014-12-16T12:35:36Z</time>
      </trkpt>
      <trkpt lat="42.80078" lon="1.70353">
        <ele>878.43</ele>
        <time>2014-12-16T12:35:49Z</time>
      </trkpt>
      <trkpt lat="42.80081" lon="1.70341">
        <ele>879.62</ele>
        <time>2014-12-16T12:35:57Z</time>
      </trkpt>
      <trkpt lat="42.80087" lon="1.70332">
        <ele>879.9</ele>
        <time>2014-12-16T12:36:12Z</time>
      </trkpt>
      <trkpt lat="42.80092" lon="1.7032">
        <ele>883.28</ele>
        <time>2014-12-16T12:36:31Z</time>
      </trkpt>
      <trkpt lat="42.80097" lon="1.70309">
        <ele>883.4</ele>
        <time>2014-12-16T12:36:39Z</time>
      </trkpt>
      <trkpt lat="42.80104" lon="1.70298">
        <ele>876.88</ele>
        <time>2014-12-16T12:36:44Z</time>
      </trkpt>
      <trkpt lat="42.80109" lon="1.70287">
        <ele>875.79</ele>
        <time>2014-12-16T12:36:48Z</time>
      </trkpt>
      <trkpt lat="42.80114" lon="1.70277">
        <ele>883.16</ele>
        <time>2014-12-16T12:37:02Z</time>
      </trkpt>
      <trkpt lat="42.80119" lon="1.70265">
        <ele>883.61</ele>
        <time>2014-12-16T12:37:15Z</time>
      </trkpt>
      <trkpt lat="42.80124" lon="1.70254">
        <ele>881.36</ele>
        <time>2014-12-16T12:37:24Z</time>
      </trkpt>
      <trkpt lat="42.80128" lon="1.70244">
        <ele>880.95</ele>
        <time>2014-12-16T12:37:34Z</time>
      </trkpt>
      <trkpt lat="42.80135" lon="1.70234">
        <ele>882.86</ele>
        <time>2014-12-16T12:37:43Z</time>
      </trkpt>
      <trkpt lat="42.80137" lon="1.7022">
        <ele>877.92</ele>
        <time>2014-12-16T12:37:50Z</time>
      </trkpt>
      <trkpt lat="42.80143" lon="1.7021">
        <ele>878.84</ele>
        <time>2014-12-16T12:37:56Z</time>
      </trkpt>
      <trkpt lat="42.80147" lon="1.70199">
        <ele>880.62</ele>
        <time>2014-12-16T12:38:06Z</time>
      </trkpt>
      <trkpt lat="42.80149" lon="1.70187">
        <ele>881.45</ele>
        <time>2014-12-16T12:38:19Z</time>
      </trkpt>
      <trkpt lat="42.8015" lon="1.70175">
        <ele>875.62</ele>
        <time>2014-12-16T12:38:32Z</time>
      </trkpt>
      <trkpt lat="42.80156" lon="1.70163">
        <ele>875.99</ele>
        <time>2014-12-16T12:38:40Z</time>
      </trkpt>
      <trkpt lat="42.80163" lon="1.70154">
        <ele>879.65</ele>
        <time>2014-12-16T12:38:57Z</time>
      </trkpt>
      <trkpt lat="42.80168" lon="1.70143">
        <ele>877.17</ele>
        <time>2014-12-16T12:39:04Z</time>
      </trkpt>
      <trkpt lat="42.80172" lon="1.70131">
        <ele>875.87</ele>
        <time>2014-12-16T12:39:08Z</time>
      </trkpt>
      <trkpt lat="42.80178" lon="1.70121">
        <ele>877.09</ele>
        <time>2014-12-16T12:39:14Z</time>
      </trkpt>
      <trkpt lat="42.80184" lon="1.7011">
        <ele>875.32</ele>
        <time>2014-12-16T12:39:25Z</time>
      </trkpt>
      <trkpt lat="42.8019" lon="1.701">
        <ele>875.56</ele>
        <time>2014-12-16T12:39:33Z</time>
      </trkpt>
      <trkpt lat="42.80197" lon="1.70093">
        <ele>876.06</ele>
        <time>2014-12-16T12:39:50Z</time>
      </trkpt>
      <trkpt lat="42.80202" lon="1.7008">
        <ele>870.68</ele>
        <time>2014-12-16T12:39:55Z</time>
      </trkpt>
      <trkpt lat="42.80205" lon="1.70068">
        <ele>868.62</ele>
        <time>2014-12-16T12:40:01Z</time>
      </trkpt>
      <trkpt lat="42.80208" lon="1.70056">
        <ele>865.63</ele>
        <time>2014-12-16T12:40:13Z</time>
      </trkpt>
      <trkpt lat="42.80207" lon="1.70042">
        <ele>863.36</ele>
        <time>2014-12-16T12:40:20Z</time>
      </trkpt>
      <trkpt lat="42.8021" lon="1.7003">
        <ele>865.2</ele>
        <time>2014-12-16T12:40:35Z</time>
      </trkpt>
      <trkpt lat="42.80214" lon="1.70019">
        <ele>865.24</ele>
        <time>2014-12-16T12:40:42Z</time>
      </trkpt>
      <trkpt lat="42.80215" lon="1.70006">
        <ele>863.65</ele>
        <time>2014-12-16T12:40:51Z</time>
      </trkpt>
      <trkpt lat="42.80218" lon="1.69994">
        <ele>858.32</ele>
        <time>2014-12-16T12:41:04Z</time>
      </trkpt>
      <trkpt lat="42.80219" lon="1.69981">
        <ele>859.17</ele>
        <time>2014-12-16T12:41:10Z</time>
      </trkpt>
      <trkpt lat="42.80221" lon="1.69968">
        <ele>856.96</ele>
        <time>2014-12-16T12:41:24Z</time>
      </trkpt>
      <trkpt lat="42.80228" lon="1.6996">
        <ele>853.55</ele>
        <time>2014-12-16T12:41:38Z</time>
      </trkpt>
      <trkpt lat="42.80236" lon="1.69954">
        <ele>851.23</ele>
        <time>2014-12-16T12:41:52Z</time>
      </trkpt>
      <trkpt lat="42.80245" lon="1.69951">
        <ele>843.94</ele>
        <time>2014-12-16T12:42:31Z</time>
      </trkpt>
      <trkpt lat="42.80254" lon="1.69946">
        <ele>838.68</ele>
        <time>2014-12-16T12:42:37Z</time>
      </trkpt>
      <trkpt lat="42.80263" lon="1.69941">
        <ele>832.37</ele>
        <time>2014-12-16T12:42:43Z</time>
      </trkpt>
      <trkpt lat="42.80272" lon="1.69946">
        <ele>828.17</ele>
        <time>2014-12-16T12:42:50Z</time>
      </trkpt>
      <trkpt lat="42.80281" lon="1.69943">
        <ele>826.98</ele>
        <time>2014-12-16T12:43:05Z</time>
      </trkpt>
      <trkpt lat="42.8029" lon="1.69935">
        <ele>827.91</ele>
        <time>2014-12-16T12:43:23Z</time>
      </trkpt>
      <trkpt lat="42.80299" lon="1.69934">
        <ele>829.54</ele>
        <time>2014-12-16T12:43:29Z</time>
      </trkpt>
      <trkpt lat="42.80309" lon="1.69931">
        <ele>830.85</ele>
        <time>2014-12-16T12:43:36Z</time>
      </trkpt>
      <trkpt lat="42.80318" lon="1.69926">
        <ele>828.37</ele>
        <time>2014-12-16T12:44:32Z</time>
      </trkpt>
      <trkpt lat="42.80327" lon="1.69928">
        <ele>827.53</ele>
        <time>2014-12-16T12:44:45Z</time>
      </trkpt>
      <trkpt lat="42.80334" lon="1.69919">
        <ele>823.16</ele>
        <time>2014-12-16T12:45:09Z</time>
      </trkpt>
      <trkpt lat="42.8034" lon="1.69909">
        <ele>816.46</ele>
        <time>2014-12-16T12:45:21Z</time>
      </trkpt>
      <trkpt lat="42.80343" lon="1.69896">
        <ele>815.09</ele>
        <time>2014-12-16T12:45:29Z</time>
      </trkpt>
      <trkpt lat="42.80348" lon="1.69886">
        <ele>814.11</ele>
        <time>2014-12-16T12:45:36Z</time>
      </trkpt>
      <trkpt lat="42.80353" lon="1.69875">
        <ele>817.09</ele>
        <time>2014-12-16T12:45:43Z</time>
      </trkpt>
      <trkpt lat="42.80357" lon="1.69864">
        <ele>821.97</ele>
        <time>2014-12-16T12:45:50Z</time>
      </trkpt>
      <trkpt lat="42.80364" lon="1.69854">
        <ele>829.25</ele>
        <time>2014-12-16T12:46:00Z</time>
      </trkpt>
      <trkpt lat="42.80362" lon="1.69842">
        <ele>826.48</ele>
        <time>2014-12-16T12:46:11Z</time>
      </trkpt>
      <trkpt lat="42.80362" lon="1.69829">
        <ele>827.04</ele>
        <time>2014-12-16T12:46:20Z</time>
      </trkpt>
      <trkpt lat="42.80363" lon="1.69816">
        <ele>823.82</ele>
        <time>2014-12-16T12:47:04Z</time>
      </trkpt>
      <trkpt lat="42.80367" lon="1.69803">
        <ele>821.1</ele>
        <time>2014-12-16T12:47:10Z</time>
      </trkpt>
      <trkpt lat="42.80371" lon="1.69791">
        <ele>818.88</ele>
        <time>2014-12-16T12:47:31Z</time>
      </trkpt>
      <trkpt lat="42.80374" lon="1.69778">
        <ele>815.79</ele>
        <time>2014-12-16T12:47:37Z</time>
      </trkpt>
      <trkpt lat="42.80373" lon="1.69766">
        <ele>814.11</ele>
        <time>2014-12-16T12:47:47Z</time>
      </trkpt>
      <trkpt lat="42.8038" lon="1.69757">
        <ele>815.79</ele>
        <time>2014-12-16T12:48:01Z</time>
      </trkpt>
      <trkpt lat="42.80385" lon="1.69746">
        <ele>817.02</ele>
        <time>2014-12-16T12:48:10Z</time>
      </trkpt>
      <trkpt lat="42.80389" lon="1.69735">
        <ele>813.31</ele>
        <time>2014-12-16T12:48:19Z</time>
      </trkpt>
      <trkpt lat="42.8039" lon="1.69721">
        <ele>803.75</ele>
        <time>2014-12-16T12:48:40Z</time>
      </trkpt>
      <trkpt lat="42.80394" lon="1.69708">
        <ele>797.68</ele>
        <time>2014-12-16T12:48:48Z</time>
      </trkpt>
      <trkpt lat="42.80398" lon="1.69696">
        <ele>797.25</ele>
        <time>2014-12-16T12:49:28Z</time>
      </trkpt>
      <trkpt lat="42.80405" lon="1.69687">
        <ele>796.13</ele>
        <time>2014-12-16T12:49:34Z</time>
      </trkpt>
      <trkpt lat="42.80404" lon="1.69673">
        <ele>792.28</ele>
        <time>2014-12-16T12:49:41Z</time>
      </trkpt>
      <trkpt lat="42.80406" lon="1.69661">
        <ele>790</ele>
        <time>2014-12-16T12:49:48Z</time>
      </trkpt>
      <trkpt lat="42.80407" lon="1.69649">
        <ele>793.11</ele>
        <time>2014-12-16T12:49:56Z</time>
      </trkpt>
      <trkpt lat="42.80409" lon="1.69637">
        <ele>793.59</ele>
        <time>2014-12-16T12:50:08Z</time>
      </trkpt>
      <trkpt lat="42.80402" lon="1.69627">
        <ele>793.15</ele>
        <time>2014-12-16T12:50:44Z</time>
      </trkpt>
      <trkpt lat="42.804" lon="1.69613">
        <ele>792.86</ele>
        <time>2014-12-16T12:50:53Z</time>
      </trkpt>
      <trkpt lat="42.80399" lon="1.696">
        <ele>796.53</ele>
        <time>2014-12-16T12:51:00Z</time>
      </trkpt>
      <trkpt lat="42.80394" lon="1.69588">
        <ele>798.86</ele>
        <time>2014-12-16T12:51:08Z</time>
      </trkpt>
      <trkpt lat="42.80396" lon="1.69576">
        <ele>794.32</ele>
        <time>2014-12-16T12:51:25Z</time>
      </trkpt>
      <trkpt lat="42.80395" lon="1.69564">
        <ele>790.52</ele>
        <time>2014-12-16T12:51:36Z</time>
      </trkpt>
      <trkpt lat="42.8039" lon="1.69554">
        <ele>781.49</ele>
        <time>2014-12-16T12:51:44Z</time>
      </trkpt>
      <trkpt lat="42.80383" lon="1.69546">
        <ele>776.32</ele>
        <time>2014-12-16T12:52:23Z</time>
      </trkpt>
      <trkpt lat="42.80385" lon="1.69535">
        <ele>769.99</ele>
        <time>2014-12-16T12:52:42Z</time>
      </trkpt>
      <trkpt lat="42.80389" lon="1.69523">
        <ele>763.82</ele>
        <time>2014-12-16T12:53:03Z</time>
      </trkpt>
      <trkpt lat="42.80393" lon="1.6951">
        <ele>757.73</ele>
        <time>2014-12-16T12:53:09Z</time>
      </trkpt>
      <trkpt lat="42.80401" lon="1.69503">
        <ele>756.75</ele>
        <time>2014-12-16T12:53:17Z</time>
      </trkpt>
      <trkpt lat="42.8041" lon="1.69497">
        <ele>755.46</ele>
        <time>2014-12-16T12:53:49Z</time>
      </trkpt>
      <trkpt lat="42.8042" lon="1.69497">
        <ele>752.46</ele>
        <time>2014-12-16T12:53:57Z</time>
      </trkpt>
      <trkpt lat="42.8043" lon="1.69495">
        <ele>750.94</ele>
        <time>2014-12-16T12:54:03Z</time>
      </trkpt>
      <trkpt lat="42.8044" lon="1.69491">
        <ele>749.22</ele>
        <time>2014-12-16T12:54:11Z</time>
      </trkpt>
      <trkpt lat="42.80448" lon="1.69487">
        <ele>749.97</ele>
        <time>2014-12-16T12:54:19Z</time>
      </trkpt>
      <trkpt lat="42.80457" lon="1.69492">
        <ele>746</ele>
        <time>2014-12-16T12:54:29Z</time>
      </trkpt>
      <trkpt lat="42.80465" lon="1.695">
        <ele>738.55</ele>
        <time>2014-12-16T12:54:38Z</time>
      </trkpt>
      <trkpt lat="42.80473" lon="1.69506">
        <ele>739.01</ele>
        <time>2014-12-16T12:54:48Z</time>
      </trkpt>
      <trkpt lat="42.8048" lon="1.69515">
        <ele>735.44</ele>
        <time>2014-12-16T12:54:58Z</time>
      </trkpt>
      <trkpt lat="42.80488" lon="1.69523">
        <ele>734.35</ele>
        <time>2014-12-16T12:55:07Z</time>
      </trkpt>
      <trkpt lat="42.80494" lon="1.69532">
        <ele>734.06</ele>
        <time>2014-12-16T12:55:16Z</time>
      </trkpt>
      <trkpt lat="42.805" lon="1.69542">
        <ele>736.69</ele>
        <time>2014-12-16T12:55:27Z</time>
      </trkpt>
      <trkpt lat="42.80509" lon="1.69547">
        <ele>732.29</ele>
        <time>2014-12-16T12:55:35Z</time>
      </trkpt>
      <trkpt lat="42.80513" lon="1.69558">
        <ele>729.47</ele>
        <time>2014-12-16T12:55:43Z</time>
      </trkpt>
      <trkpt lat="42.80518" lon="1.69569">
        <ele>722.01</ele>
        <time>2014-12-16T12:55:58Z</time>
      </trkpt>
      <trkpt lat="42.80526" lon="1.69576">
        <ele>717.83</ele>
        <time>2014-12-16T12:56:09Z</time>
      </trkpt>
      <trkpt lat="42.80532" lon="1.69585">
        <ele>727.17</ele>
        <time>2014-12-16T12:56:23Z</time>
      </trkpt>
      <trkpt lat="42.8054" lon="1.69577">
        <ele>733.75</ele>
        <time>2014-12-16T12:58:19Z</time>
      </trkpt>
      <trkpt lat="42.80546" lon="1.69566">
        <ele>735.76</ele>
        <time>2014-12-16T12:58:29Z</time>
      </trkpt>
      <trkpt lat="42.80546" lon="1.69553">
        <ele>733.49</ele>
        <time>2014-12-16T12:58:37Z</time>
      </trkpt>
      <trkpt lat="42.80542" lon="1.69541">
        <ele>724.24</ele>
        <time>2014-12-16T13:01:27Z</time>
      </trkpt>
      <trkpt lat="42.80545" lon="1.69528">
        <ele>719.44</ele>
        <time>2014-12-16T13:03:33Z</time>
      </trkpt>
      <trkpt lat="42.80549" lon="1.69516">
        <ele>727.26</ele>
        <time>2014-12-16T13:03:49Z</time>
      </trkpt>
      <trkpt lat="42.80544" lon="1.69506">
        <ele>726.33</ele>
        <time>2014-12-16T13:04:02Z</time>
      </trkpt>
      <trkpt lat="42.80542" lon="1.69493">
        <ele>727.87</ele>
        <time>2014-12-16T13:04:12Z</time>
      </trkpt>
      <trkpt lat="42.80538" lon="1.69481">
        <ele>729.42</ele>
        <time>2014-12-16T13:04:28Z</time>
      </trkpt>
      <trkpt lat="42.80528" lon="1.69478">
        <ele>728.31</ele>
        <time>2014-12-16T13:04:41Z</time>
      </trkpt>
      <trkpt lat="42.80524" lon="1.69466">
        <ele>741.07</ele>
        <time>2014-12-16T13:05:10Z</time>
      </trkpt>
      <trkpt lat="42.80519" lon="1.69454">
        <ele>735.72</ele>
        <time>2014-12-16T13:05:21Z</time>
      </trkpt>
      <trkpt lat="42.80516" lon="1.69442">
        <ele>734.93</ele>
        <time>2014-12-16T13:05:30Z</time>
      </trkpt>
      <trkpt lat="42.80511" lon="1.6943">
        <ele>730.67</ele>
        <time>2014-12-16T13:05:40Z</time>
      </trkpt>
      <trkpt lat="42.80504" lon="1.69422">
        <ele>731.04</ele>
        <time>2014-12-16T13:05:48Z</time>
      </trkpt>
      <trkpt lat="42.80495" lon="1.69419">
        <ele>730.36</ele>
        <time>2014-12-16T13:05:57Z</time>
      </trkpt>
      <trkpt lat="42.80486" lon="1.69413">
        <ele>725.86</ele>
        <time>2014-12-16T13:06:08Z</time>
      </trkpt>
      <trkpt lat="42.80479" lon="1.69406">
        <ele>728.55</ele>
        <time>2014-12-16T13:06:20Z</time>
      </trkpt>
      <trkpt lat="42.8047" lon="1.694">
        <ele>734.31</ele>
        <time>2014-12-16T13:06:29Z</time>
      </trkpt>
      <trkpt lat="42.80461" lon="1.69399">
        <ele>730.55</ele>
        <time>2014-12-16T13:06:37Z</time>
      </trkpt>
      <trkpt lat="42.80451" lon="1.69397">
        <ele>732.36</ele>
        <time>2014-12-16T13:06:44Z</time>
      </trkpt>
      <trkpt lat="42.80442" lon="1.69395">
        <ele>725.05</ele>
        <time>2014-12-16T13:06:51Z</time>
      </trkpt>
      <trkpt lat="42.80435" lon="1.69387">
        <ele>728.71</ele>
        <time>2014-12-16T13:06:59Z</time>
      </trkpt>
      <trkpt lat="42.80427" lon="1.6938">
        <ele>726.55</ele>
        <time>2014-12-16T13:07:09Z</time>
      </trkpt>
      <trkpt lat="42.80424" lon="1.69368">
        <ele>723.51</ele>
        <time>2014-12-16T13:07:20Z</time>
      </trkpt>
      <trkpt lat="42.8042" lon="1.69356">
        <ele>719.29</ele>
        <time>2014-12-16T13:07:34Z</time>
      </trkpt>
      <trkpt lat="42.80416" lon="1.69344">
        <ele>721.52</ele>
        <time>2014-12-16T13:07:43Z</time>
      </trkpt>
      <trkpt lat="42.8041" lon="1.69334">
        <ele>723.8</ele>
        <time>2014-12-16T13:07:53Z</time>
      </trkpt>
      <trkpt lat="42.80402" lon="1.69329">
        <ele>723.95</ele>
        <time>2014-12-16T13:08:00Z</time>
      </trkpt>
      <trkpt lat="42.80395" lon="1.69321">
        <ele>722.54</ele>
        <time>2014-12-16T13:08:08Z</time>
      </trkpt>
      <trkpt lat="42.80388" lon="1.69312">
        <ele>724.37</ele>
        <time>2014-12-16T13:08:17Z</time>
      </trkpt>
      <trkpt lat="42.80381" lon="1.69302">
        <ele>726.66</ele>
        <time>2014-12-16T13:08:30Z</time>
      </trkpt>
      <trkpt lat="42.80375" lon="1.69293">
        <ele>723.79</ele>
        <time>2014-12-16T13:08:39Z</time>
      </trkpt>
      <trkpt lat="42.80369" lon="1.69285">
        <ele>720.68</ele>
        <time>2014-12-16T13:08:47Z</time>
      </trkpt>
      <trkpt lat="42.80362" lon="1.69276">
        <ele>722.01</ele>
        <time>2014-12-16T13:08:54Z</time>
      </trkpt>
      <trkpt lat="42.80353" lon="1.69268">
        <ele>724.47</ele>
        <time>2014-12-16T13:09:01Z</time>
      </trkpt>
      <trkpt lat="42.80344" lon="1.69262">
        <ele>724.5</ele>
        <time>2014-12-16T13:09:10Z</time>
      </trkpt>
      <trkpt lat="42.80336" lon="1.69257">
        <ele>726.06</ele>
        <time>2014-12-16T13:09:18Z</time>
      </trkpt>
      <trkpt lat="42.80331" lon="1.69246">
        <ele>728.41</ele>
        <time>2014-12-16T13:09:25Z</time>
      </trkpt>
      <trkpt lat="42.80325" lon="1.69237">
        <ele>723.66</ele>
        <time>2014-12-16T13:09:34Z</time>
      </trkpt>
      <trkpt lat="42.80315" lon="1.69236">
        <ele>720.39</ele>
        <time>2014-12-16T13:09:44Z</time>
      </trkpt>
      <trkpt lat="42.80305" lon="1.69238">
        <ele>715.15</ele>
        <time>2014-12-16T13:09:53Z</time>
      </trkpt>
      <trkpt lat="42.80296" lon="1.69234">
        <ele>711.25</ele>
        <time>2014-12-16T13:10:10Z</time>
      </trkpt>
      <trkpt lat="42.80289" lon="1.69226">
        <ele>710.78</ele>
        <time>2014-12-16T13:10:21Z</time>
      </trkpt>
      <trkpt lat="42.80285" lon="1.69213">
        <ele>706.83</ele>
        <time>2014-12-16T13:10:31Z</time>
      </trkpt>
      <trkpt lat="42.80278" lon="1.69204">
        <ele>705.83</ele>
        <time>2014-12-16T13:10:43Z</time>
      </trkpt>
      <trkpt lat="42.80271" lon="1.69194">
        <ele>705.61</ele>
        <time>2014-12-16T13:10:54Z</time>
      </trkpt>
      <trkpt lat="42.80264" lon="1.69185">
        <ele>703.24</ele>
        <time>2014-12-16T13:11:03Z</time>
      </trkpt>
      <trkpt lat="42.8026" lon="1.69173">
        <ele>700.98</ele>
        <time>2014-12-16T13:11:14Z</time>
      </trkpt>
      <trkpt lat="42.80255" lon="1.69162">
        <ele>695.59</ele>
        <time>2014-12-16T13:11:25Z</time>
      </trkpt>
      <trkpt lat="42.80248" lon="1.69153">
        <ele>692.53</ele>
        <time>2014-12-16T13:11:37Z</time>
      </trkpt>
      <trkpt lat="42.8024" lon="1.69146">
        <ele>694.21</ele>
        <time>2014-12-16T13:11:51Z</time>
      </trkpt>
      <trkpt lat="42.80234" lon="1.69136">
        <ele>691.71</ele>
        <time>2014-12-16T13:12:05Z</time>
      </trkpt>
      <trkpt lat="42.80225" lon="1.69132">
        <ele>689.37</ele>
        <time>2014-12-16T13:12:14Z</time>
      </trkpt>
      <trkpt lat="42.80217" lon="1.69127">
        <ele>691.57</ele>
        <time>2014-12-16T13:12:22Z</time>
      </trkpt>
      <trkpt lat="42.80208" lon="1.69122">
        <ele>688.73</ele>
        <time>2014-12-16T13:12:32Z</time>
      </trkpt>
      <trkpt lat="42.80204" lon="1.6911">
        <ele>688.3</ele>
        <time>2014-12-16T13:12:41Z</time>
      </trkpt>
      <trkpt lat="42.80196" lon="1.69102">
        <ele>683.48</ele>
        <time>2014-12-16T13:12:51Z</time>
      </trkpt>
      <trkpt lat="42.80187" lon="1.691">
        <ele>682.19</ele>
        <time>2014-12-16T13:12:58Z</time>
      </trkpt>
      <trkpt lat="42.80179" lon="1.69093">
        <ele>677.22</ele>
        <time>2014-12-16T13:13:06Z</time>
      </trkpt>
      <trkpt lat="42.80174" lon="1.69083">
        <ele>670</ele>
        <time>2014-12-16T13:13:15Z</time>
      </trkpt>
      <trkpt lat="42.80166" lon="1.69074">
        <ele>665.48</ele>
        <time>2014-12-16T13:13:25Z</time>
      </trkpt>
      <trkpt lat="42.80157" lon="1.69069">
        <ele>664.63</ele>
        <time>2014-12-16T13:13:31Z</time>
      </trkpt>
      <trkpt lat="42.80149" lon="1.69063">
        <ele>669.7</ele>
        <time>2014-12-16T13:13:39Z</time>
      </trkpt>
      <trkpt lat="42.8014" lon="1.69057">
        <ele>674.25</ele>
        <time>2014-12-16T13:13:47Z</time>
      </trkpt>
      <trkpt lat="42.80131" lon="1.69054">
        <ele>671.52</ele>
        <time>2014-12-16T13:13:55Z</time>
      </trkpt>
      <trkpt lat="42.80122" lon="1.6905">
        <ele>672.92</ele>
        <time>2014-12-16T13:14:05Z</time>
      </trkpt>
      <trkpt lat="42.80114" lon="1.69045">
        <ele>676.06</ele>
        <time>2014-12-16T13:14:24Z</time>
      </trkpt>
      <trkpt lat="42.80106" lon="1.69037">
        <ele>673.48</ele>
        <time>2014-12-16T13:14:31Z</time>
      </trkpt>
      <trkpt lat="42.80098" lon="1.69028">
        <ele>672.02</ele>
        <time>2014-12-16T13:14:38Z</time>
      </trkpt>
      <trkpt lat="42.80091" lon="1.69018">
        <ele>671.29</ele>
        <time>2014-12-16T13:14:45Z</time>
      </trkpt>
      <trkpt lat="42.80084" lon="1.69011">
        <ele>671.82</ele>
        <time>2014-12-16T13:15:22Z</time>
      </trkpt>
      <trkpt lat="42.80079" lon="1.69">
        <ele>667.15</ele>
        <time>2014-12-16T13:16:17Z</time>
      </trkpt>
      <trkpt lat="42.80072" lon="1.68992">
        <ele>662.79</ele>
        <time>2014-12-16T13:16:27Z</time>
      </trkpt>
      <trkpt lat="42.80065" lon="1.68983">
        <ele>662.66</ele>
        <time>2014-12-16T13:16:38Z</time>
      </trkpt>
      <trkpt lat="42.80064" lon="1.6897">
        <ele>661.25</ele>
        <time>2014-12-16T13:16:46Z</time>
      </trkpt>
      <trkpt lat="42.80056" lon="1.68961">
        <ele>659.88</ele>
        <time>2014-12-16T13:16:54Z</time>
      </trkpt>
      <trkpt lat="42.80049" lon="1.68953">
        <ele>659.95</ele>
        <time>2014-12-16T13:17:03Z</time>
      </trkpt>
      <trkpt lat="42.8004" lon="1.68947">
        <ele>661.94</ele>
        <time>2014-12-16T13:17:11Z</time>
      </trkpt>
      <trkpt lat="42.8003" lon="1.68945">
        <ele>664.37</ele>
        <time>2014-12-16T13:17:19Z</time>
      </trkpt>
      <trkpt lat="42.80021" lon="1.68942">
        <ele>664.34</ele>
        <time>2014-12-16T13:17:29Z</time>
      </trkpt>
      <trkpt lat="42.80013" lon="1.68936">
        <ele>664.94</ele>
        <time>2014-12-16T13:17:35Z</time>
      </trkpt>
      <trkpt lat="42.80005" lon="1.68928">
        <ele>662.54</ele>
        <time>2014-12-16T13:17:42Z</time>
      </trkpt>
      <trkpt lat="42.79997" lon="1.6892">
        <ele>661.08</ele>
        <time>2014-12-16T13:17:51Z</time>
      </trkpt>
      <trkpt lat="42.79989" lon="1.68914">
        <ele>659.13</ele>
        <time>2014-12-16T13:18:01Z</time>
      </trkpt>
      <trkpt lat="42.7998" lon="1.68913">
        <ele>661.8</ele>
        <time>2014-12-16T13:18:07Z</time>
      </trkpt>
      <trkpt lat="42.7997" lon="1.68916">
        <ele>660.44</ele>
        <time>2014-12-16T13:18:14Z</time>
      </trkpt>
      <trkpt lat="42.7996" lon="1.68919">
        <ele>663.32</ele>
        <time>2014-12-16T13:18:21Z</time>
      </trkpt>
      <trkpt lat="42.79951" lon="1.68918">
        <ele>663.3</ele>
        <time>2014-12-16T13:18:29Z</time>
      </trkpt>
      <trkpt lat="42.79942" lon="1.68916">
        <ele>663.97</ele>
        <time>2014-12-16T13:18:38Z</time>
      </trkpt>
      <trkpt lat="42.79932" lon="1.68913">
        <ele>664.16</ele>
        <time>2014-12-16T13:18:46Z</time>
      </trkpt>
      <trkpt lat="42.79923" lon="1.6891">
        <ele>663.48</ele>
        <time>2014-12-16T13:18:55Z</time>
      </trkpt>
      <trkpt lat="42.79914" lon="1.68906">
        <ele>660.82</ele>
        <time>2014-12-16T13:19:04Z</time>
      </trkpt>
      <trkpt lat="42.79905" lon="1.68901">
        <ele>656.04</ele>
        <time>2014-12-16T13:19:15Z</time>
      </trkpt>
      <trkpt lat="42.79898" lon="1.68894">
        <ele>653.82</ele>
        <time>2014-12-16T13:19:23Z</time>
      </trkpt>
      <trkpt lat="42.7989" lon="1.68886">
        <ele>653.04</ele>
        <time>2014-12-16T13:19:31Z</time>
      </trkpt>
      <trkpt lat="42.79882" lon="1.68878">
        <ele>653.94</ele>
        <time>2014-12-16T13:19:39Z</time>
      </trkpt>
      <trkpt lat="42.79874" lon="1.68872">
        <ele>652.39</ele>
        <time>2014-12-16T13:19:46Z</time>
      </trkpt>
      <trkpt lat="42.79867" lon="1.68864">
        <ele>652.32</ele>
        <time>2014-12-16T13:19:54Z</time>
      </trkpt>
      <trkpt lat="42.79858" lon="1.68857">
        <ele>652.68</ele>
        <time>2014-12-16T13:20:02Z</time>
      </trkpt>
      <trkpt lat="42.79851" lon="1.6885">
        <ele>641.15</ele>
        <time>2014-12-16T13:20:13Z</time>
      </trkpt>
      <trkpt lat="42.79843" lon="1.68843">
        <ele>637.02</ele>
        <time>2014-12-16T13:20:25Z</time>
      </trkpt>
      <trkpt lat="42.79842" lon="1.6883">
        <ele>637.83</ele>
        <time>2014-12-16T13:20:35Z</time>
      </trkpt>
      <trkpt lat="42.79841" lon="1.68816">
        <ele>635.43</ele>
        <time>2014-12-16T13:20:45Z</time>
      </trkpt>
      <trkpt lat="42.79843" lon="1.68803">
        <ele>638.74</ele>
        <time>2014-12-16T13:20:54Z</time>
      </trkpt>
      <trkpt lat="42.79843" lon="1.6879">
        <ele>642.07</ele>
        <time>2014-12-16T13:21:02Z</time>
      </trkpt>
      <trkpt lat="42.79847" lon="1.68778">
        <ele>642.31</ele>
        <time>2014-12-16T13:21:09Z</time>
      </trkpt>
      <trkpt lat="42.79848" lon="1.68765">
        <ele>642.24</ele>
        <time>2014-12-16T13:21:22Z</time>
      </trkpt>
      <trkpt lat="42.79838" lon="1.68765">
        <ele>640.41</ele>
        <time>2014-12-16T13:21:32Z</time>
      </trkpt>
      <trkpt lat="42.7983" lon="1.68772">
        <ele>642.92</ele>
        <time>2014-12-16T13:21:40Z</time>
      </trkpt>
      <trkpt lat="42.79826" lon="1.68784">
        <ele>644.18</ele>
        <time>2014-12-16T13:21:49Z</time>
      </trkpt>
      <trkpt lat="42.79822" lon="1.68795">
        <ele>646.22</ele>
        <time>2014-12-16T13:21:57Z</time>
      </trkpt>
      <trkpt lat="42.79819" lon="1.68807">
        <ele>645.04</ele>
        <time>2014-12-16T13:22:06Z</time>
      </trkpt>
      <trkpt lat="42.79817" lon="1.6882">
        <ele>642.72</ele>
        <time>2014-12-16T13:22:15Z</time>
      </trkpt>
      <trkpt lat="42.79815" lon="1.68833">
        <ele>646.4</ele>
        <time>2014-12-16T13:22:24Z</time>
      </trkpt>
      <trkpt lat="42.79817" lon="1.68846">
        <ele>642.46</ele>
        <time>2014-12-16T13:22:31Z</time>
      </trkpt>
      <trkpt lat="42.7982" lon="1.68859">
        <ele>637.57</ele>
        <time>2014-12-16T13:22:38Z</time>
      </trkpt>
      <trkpt lat="42.7982" lon="1.68871">
        <ele>636.83</ele>
        <time>2014-12-16T13:22:45Z</time>
      </trkpt>
      <trkpt lat="42.79823" lon="1.68884">
        <ele>635.39</ele>
        <time>2014-12-16T13:22:53Z</time>
      </trkpt>
      <trkpt lat="42.79825" lon="1.68896">
        <ele>635.79</ele>
        <time>2014-12-16T13:23:00Z</time>
      </trkpt>
      <trkpt lat="42.79828" lon="1.68909">
        <ele>633.61</ele>
        <time>2014-12-16T13:23:07Z</time>
      </trkpt>
      <trkpt lat="42.79833" lon="1.6892">
        <ele>630.58</ele>
        <time>2014-12-16T13:23:14Z</time>
      </trkpt>
      <trkpt lat="42.79841" lon="1.68927">
        <ele>627.49</ele>
        <time>2014-12-16T13:23:21Z</time>
      </trkpt>
      <trkpt lat="42.7985" lon="1.68933">
        <ele>625.04</ele>
        <time>2014-12-16T13:23:29Z</time>
      </trkpt>
      <trkpt lat="42.79859" lon="1.68938">
        <ele>624.43</ele>
        <time>2014-12-16T13:23:37Z</time>
      </trkpt>
      <trkpt lat="42.79866" lon="1.68946">
        <ele>628.79</ele>
        <time>2014-12-16T13:23:45Z</time>
      </trkpt>
      <trkpt lat="42.79874" lon="1.68953">
        <ele>629.02</ele>
        <time>2014-12-16T13:23:54Z</time>
      </trkpt>
      <trkpt lat="42.7988" lon="1.68962">
        <ele>630.22</ele>
        <time>2014-12-16T13:24:02Z</time>
      </trkpt>
      <trkpt lat="42.79888" lon="1.6897">
        <ele>630.18</ele>
        <time>2014-12-16T13:24:12Z</time>
      </trkpt>
      <trkpt lat="42.79896" lon="1.68978">
        <ele>626.87</ele>
        <time>2014-12-16T13:24:21Z</time>
      </trkpt>
      <trkpt lat="42.79895" lon="1.68991">
        <ele>626.78</ele>
        <time>2014-12-16T13:24:32Z</time>
      </trkpt>
      <trkpt lat="42.79886" lon="1.68995">
        <ele>627.52</ele>
        <time>2014-12-16T13:24:46Z</time>
      </trkpt>
      <trkpt lat="42.79879" lon="1.68987">
        <ele>632.11</ele>
        <time>2014-12-16T13:25:25Z</time>
      </trkpt>
      <trkpt lat="42.79871" lon="1.6898">
        <ele>628.58</ele>
        <time>2014-12-16T13:25:41Z</time>
      </trkpt>
      <trkpt lat="42.79862" lon="1.68977">
        <ele>627.56</ele>
        <time>2014-12-16T13:25:54Z</time>
      </trkpt>
      <trkpt lat="42.79853" lon="1.68974">
        <ele>625.28</ele>
        <time>2014-12-16T13:26:04Z</time>
      </trkpt>
      <trkpt lat="42.79843" lon="1.68972">
        <ele>618.83</ele>
        <time>2014-12-16T13:26:13Z</time>
      </trkpt>
      <trkpt lat="42.79833" lon="1.68971">
        <ele>621.14</ele>
        <time>2014-12-16T13:26:22Z</time>
      </trkpt>
      <trkpt lat="42.79825" lon="1.68965">
        <ele>627.8</ele>
        <time>2014-12-16T13:26:31Z</time>
      </trkpt>
      <trkpt lat="42.79816" lon="1.68958">
        <ele>630.66</ele>
        <time>2014-12-16T13:26:39Z</time>
      </trkpt>
    </trkseg>
  </trk>
</gpx>